<?xml version="1.0" encoding="UTF-8" standalone="no" ?>
<gpx xmlns="http://www.topografix.com/GPX/1/1" xmlns:xsi="http://www.w3.org/2001/XMLSchema-instance" xsi:schemaLocation="http://www.topografix.com/GPX/1/1 http://www.topografix.com/GPX/1/1/gpx.xsd" version="1.1" creator="VisuGPX - https://www.visugpx.com">
  <metadata>
    <name>Ardèche 3</name>
    <desc><![CDATA[trav Ard 3]]></desc>
  </metadata>
  <trk>
    <name><![CDATA[Ardèche 3_1]]></name>
    <trkseg>
      <trkpt lat="44.63047" lon="4.09004">
        <ele>1368</ele>
        <time>2016-05-12T16:17:37Z</time>
      </trkpt>
      <trkpt lat="44.62989" lon="4.08978">
        <ele>1364</ele>
        <time>2016-05-12T16:17:38Z</time>
      </trkpt>
      <trkpt lat="44.62964" lon="4.08965">
        <ele>1364</ele>
        <time>2016-05-12T16:17:39Z</time>
      </trkpt>
      <trkpt lat="44.62935" lon="4.0892">
        <ele>1364</ele>
        <time>2016-05-12T16:17:40Z</time>
      </trkpt>
      <trkpt lat="44.62882" lon="4.08903">
        <ele>1374</ele>
        <time>2016-05-12T16:17:41Z</time>
      </trkpt>
      <trkpt lat="44.6277" lon="4.0877">
        <ele>1392</ele>
        <time>2016-05-12T16:17:42Z</time>
      </trkpt>
      <trkpt lat="44.62693" lon="4.08688">
        <ele>1404</ele>
        <time>2016-05-12T16:17:43Z</time>
      </trkpt>
      <trkpt lat="44.62656" lon="4.0862">
        <ele>1411</ele>
        <time>2016-05-12T16:17:44Z</time>
      </trkpt>
      <trkpt lat="44.62605" lon="4.08596">
        <ele>1415</ele>
        <time>2016-05-12T16:17:45Z</time>
      </trkpt>
      <trkpt lat="44.6255" lon="4.08592">
        <ele>1424</ele>
        <time>2016-05-12T16:17:46Z</time>
      </trkpt>
      <trkpt lat="44.62517" lon="4.0862">
        <ele>1428</ele>
        <time>2016-05-12T16:17:47Z</time>
      </trkpt>
      <trkpt lat="44.62491" lon="4.08641">
        <ele>1438</ele>
        <time>2016-05-12T16:17:48Z</time>
      </trkpt>
      <trkpt lat="44.62445" lon="4.08628">
        <ele>1439</ele>
        <time>2016-05-12T16:17:49Z</time>
      </trkpt>
      <trkpt lat="44.62387" lon="4.08622">
        <ele>1454</ele>
        <time>2016-05-12T16:17:50Z</time>
      </trkpt>
      <trkpt lat="44.62361" lon="4.08605">
        <ele>1457</ele>
        <time>2016-05-12T16:17:51Z</time>
      </trkpt>
      <trkpt lat="44.62355" lon="4.08515">
        <ele>1448</ele>
        <time>2016-05-12T16:17:52Z</time>
      </trkpt>
      <trkpt lat="44.62338" lon="4.08476">
        <ele>1442</ele>
        <time>2016-05-12T16:17:53Z</time>
      </trkpt>
      <trkpt lat="44.62305" lon="4.08461">
        <ele>1453</ele>
        <time>2016-05-12T16:17:54Z</time>
      </trkpt>
      <trkpt lat="44.62228" lon="4.08455">
        <ele>1465</ele>
        <time>2016-05-12T16:17:55Z</time>
      </trkpt>
      <trkpt lat="44.62181" lon="4.08437">
        <ele>1468</ele>
        <time>2016-05-12T16:17:56Z</time>
      </trkpt>
      <trkpt lat="44.62138" lon="4.08431">
        <ele>1474</ele>
        <time>2016-05-12T16:17:57Z</time>
      </trkpt>
      <trkpt lat="44.62076" lon="4.08429">
        <ele>1476</ele>
        <time>2016-05-12T16:17:58Z</time>
      </trkpt>
      <trkpt lat="44.62025" lon="4.08439">
        <ele>1478</ele>
        <time>2016-05-12T16:17:59Z</time>
      </trkpt>
      <trkpt lat="44.61987" lon="4.08452">
        <ele>1478</ele>
        <time>2016-05-12T16:18:00Z</time>
      </trkpt>
      <trkpt lat="44.61944" lon="4.08405">
        <ele>1478</ele>
        <time>2016-05-12T16:18:01Z</time>
      </trkpt>
      <trkpt lat="44.61933" lon="4.08352">
        <ele>1478</ele>
        <time>2016-05-12T16:18:02Z</time>
      </trkpt>
      <trkpt lat="44.61943" lon="4.08227">
        <ele>1482</ele>
        <time>2016-05-12T16:18:03Z</time>
      </trkpt>
      <trkpt lat="44.61956" lon="4.08107">
        <ele>1491</ele>
        <time>2016-05-12T16:18:04Z</time>
      </trkpt>
      <trkpt lat="44.61949" lon="4.08015">
        <ele>1500</ele>
        <time>2016-05-12T16:18:05Z</time>
      </trkpt>
      <trkpt lat="44.61972" lon="4.07942">
        <ele>1503</ele>
        <time>2016-05-12T16:18:06Z</time>
      </trkpt>
      <trkpt lat="44.61961" lon="4.07927">
        <ele>1503</ele>
        <time>2016-05-12T16:18:07Z</time>
      </trkpt>
      <trkpt lat="44.61886" lon="4.07877">
        <ele>1494</ele>
        <time>2016-05-12T16:18:08Z</time>
      </trkpt>
      <trkpt lat="44.6172" lon="4.07809">
        <ele>1489</ele>
        <time>2016-05-12T16:18:09Z</time>
      </trkpt>
      <trkpt lat="44.61565" lon="4.07725">
        <ele>1477</ele>
        <time>2016-05-12T16:18:10Z</time>
      </trkpt>
      <trkpt lat="44.61516" lon="4.07688">
        <ele>1469</ele>
        <time>2016-05-12T16:18:11Z</time>
      </trkpt>
      <trkpt lat="44.61432" lon="4.07626">
        <ele>1449</ele>
        <time>2016-05-12T16:18:12Z</time>
      </trkpt>
      <trkpt lat="44.61402" lon="4.07568">
        <ele>1442</ele>
        <time>2016-05-12T16:18:13Z</time>
      </trkpt>
      <trkpt lat="44.6139" lon="4.07555">
        <ele>1441</ele>
        <time>2016-05-12T16:18:14Z</time>
      </trkpt>
      <trkpt lat="44.6137" lon="4.07521">
        <ele>1441</ele>
        <time>2016-05-12T16:18:15Z</time>
      </trkpt>
      <trkpt lat="44.61318" lon="4.07459">
        <ele>1444</ele>
        <time>2016-05-12T16:18:16Z</time>
      </trkpt>
      <trkpt lat="44.61286" lon="4.07358">
        <ele>1445</ele>
        <time>2016-05-12T16:18:17Z</time>
      </trkpt>
      <trkpt lat="44.61264" lon="4.0742">
        <ele>1444</ele>
        <time>2016-05-12T16:18:18Z</time>
      </trkpt>
      <trkpt lat="44.61222" lon="4.0748">
        <ele>1432</ele>
        <time>2016-05-12T16:18:19Z</time>
      </trkpt>
      <trkpt lat="44.61161" lon="4.07508">
        <ele>1415</ele>
        <time>2016-05-12T16:18:20Z</time>
      </trkpt>
      <trkpt lat="44.61044" lon="4.07506">
        <ele>1389</ele>
        <time>2016-05-12T16:18:21Z</time>
      </trkpt>
      <trkpt lat="44.6097" lon="4.07474">
        <ele>1371</ele>
        <time>2016-05-12T16:18:22Z</time>
      </trkpt>
      <trkpt lat="44.60915" lon="4.07442">
        <ele>1362</ele>
        <time>2016-05-12T16:18:23Z</time>
      </trkpt>
      <trkpt lat="44.60921" lon="4.07384">
        <ele>1364</ele>
        <time>2016-05-12T16:18:24Z</time>
      </trkpt>
      <trkpt lat="44.60951" lon="4.07294">
        <ele>1363</ele>
        <time>2016-05-12T16:18:25Z</time>
      </trkpt>
      <trkpt lat="44.60942" lon="4.07261">
        <ele>1361</ele>
        <time>2016-05-12T16:18:26Z</time>
      </trkpt>
      <trkpt lat="44.60899" lon="4.07242">
        <ele>1363</ele>
        <time>2016-05-12T16:18:27Z</time>
      </trkpt>
      <trkpt lat="44.60893" lon="4.07201">
        <ele>1365</ele>
        <time>2016-05-12T16:18:28Z</time>
      </trkpt>
      <trkpt lat="44.60899" lon="4.07073">
        <ele>1370</ele>
        <time>2016-05-12T16:18:29Z</time>
      </trkpt>
      <trkpt lat="44.60904" lon="4.06948">
        <ele>1374</ele>
        <time>2016-05-12T16:18:30Z</time>
      </trkpt>
      <trkpt lat="44.60924" lon="4.06895">
        <ele>1371</ele>
        <time>2016-05-12T16:18:31Z</time>
      </trkpt>
      <trkpt lat="44.61005" lon="4.06882">
        <ele>1359</ele>
        <time>2016-05-12T16:18:32Z</time>
      </trkpt>
      <trkpt lat="44.61081" lon="4.06828">
        <ele>1356</ele>
        <time>2016-05-12T16:18:33Z</time>
      </trkpt>
      <trkpt lat="44.6117" lon="4.06712">
        <ele>1346</ele>
        <time>2016-05-12T16:18:34Z</time>
      </trkpt>
      <trkpt lat="44.61208" lon="4.06658">
        <ele>1348</ele>
        <time>2016-05-12T16:18:35Z</time>
      </trkpt>
      <trkpt lat="44.6119" lon="4.0656">
        <ele>1355</ele>
        <time>2016-05-12T16:18:36Z</time>
      </trkpt>
      <trkpt lat="44.61199" lon="4.06519">
        <ele>1355</ele>
        <time>2016-05-12T16:18:37Z</time>
      </trkpt>
      <trkpt lat="44.61226" lon="4.06474">
        <ele>1355</ele>
        <time>2016-05-12T16:18:38Z</time>
      </trkpt>
      <trkpt lat="44.61272" lon="4.0642">
        <ele>1339</ele>
        <time>2016-05-12T16:18:39Z</time>
      </trkpt>
      <trkpt lat="44.61301" lon="4.06369">
        <ele>1341</ele>
        <time>2016-05-12T16:18:40Z</time>
      </trkpt>
      <trkpt lat="44.61319" lon="4.06201">
        <ele>1335</ele>
        <time>2016-05-12T16:18:41Z</time>
      </trkpt>
      <trkpt lat="44.61274" lon="4.06146">
        <ele>1331</ele>
        <time>2016-05-12T16:18:42Z</time>
      </trkpt>
      <trkpt lat="44.6118" lon="4.0601">
        <ele>1332</ele>
        <time>2016-05-12T16:18:43Z</time>
      </trkpt>
      <trkpt lat="44.61121" lon="4.05897">
        <ele>1332</ele>
        <time>2016-05-12T16:18:44Z</time>
      </trkpt>
      <trkpt lat="44.61103" lon="4.05882">
        <ele>1334</ele>
        <time>2016-05-12T16:18:45Z</time>
      </trkpt>
      <trkpt lat="44.6113" lon="4.05766">
        <ele>1339</ele>
        <time>2016-05-12T16:18:46Z</time>
      </trkpt>
      <trkpt lat="44.61138" lon="4.05577">
        <ele>1362</ele>
        <time>2016-05-12T16:18:47Z</time>
      </trkpt>
      <trkpt lat="44.61161" lon="4.05594">
        <ele>1354</ele>
        <time>2016-05-12T16:18:48Z</time>
      </trkpt>
      <trkpt lat="44.61268" lon="4.05755">
        <ele>1330</ele>
        <time>2016-05-12T16:18:49Z</time>
      </trkpt>
      <trkpt lat="44.61327" lon="4.058">
        <ele>1329</ele>
        <time>2016-05-12T16:18:50Z</time>
      </trkpt>
      <trkpt lat="44.61376" lon="4.0586">
        <ele>1319</ele>
        <time>2016-05-12T16:18:51Z</time>
      </trkpt>
      <trkpt lat="44.61458" lon="4.05905">
        <ele>1314</ele>
        <time>2016-05-12T16:18:52Z</time>
      </trkpt>
      <trkpt lat="44.61648" lon="4.05856">
        <ele>1291</ele>
        <time>2016-05-12T16:18:53Z</time>
      </trkpt>
      <trkpt lat="44.61773" lon="4.05757">
        <ele>1272</ele>
        <time>2016-05-12T16:18:54Z</time>
      </trkpt>
      <trkpt lat="44.61836" lon="4.05656">
        <ele>1270</ele>
        <time>2016-05-12T16:18:55Z</time>
      </trkpt>
      <trkpt lat="44.61849" lon="4.05607">
        <ele>1267</ele>
        <time>2016-05-12T16:18:56Z</time>
      </trkpt>
      <trkpt lat="44.61845" lon="4.05549">
        <ele>1267</ele>
        <time>2016-05-12T16:18:57Z</time>
      </trkpt>
      <trkpt lat="44.6184" lon="4.05461">
        <ele>1265</ele>
        <time>2016-05-12T16:18:58Z</time>
      </trkpt>
      <trkpt lat="44.61816" lon="4.05418">
        <ele>1284</ele>
        <time>2016-05-12T16:18:59Z</time>
      </trkpt>
      <trkpt lat="44.61814" lon="4.05365">
        <ele>1296</ele>
        <time>2016-05-12T16:19:00Z</time>
      </trkpt>
      <trkpt lat="44.61886" lon="4.05311">
        <ele>1277</ele>
        <time>2016-05-12T16:19:01Z</time>
      </trkpt>
      <trkpt lat="44.61917" lon="4.05193">
        <ele>1288</ele>
        <time>2016-05-12T16:19:02Z</time>
      </trkpt>
      <trkpt lat="44.61944" lon="4.05101">
        <ele>1268</ele>
        <time>2016-05-12T16:19:03Z</time>
      </trkpt>
      <trkpt lat="44.61962" lon="4.04953">
        <ele>1274</ele>
        <time>2016-05-12T16:19:04Z</time>
      </trkpt>
      <trkpt lat="44.6197" lon="4.04817">
        <ele>1265</ele>
        <time>2016-05-12T16:19:05Z</time>
      </trkpt>
      <trkpt lat="44.61917" lon="4.04802">
        <ele>1278</ele>
        <time>2016-05-12T16:19:06Z</time>
      </trkpt>
      <trkpt lat="44.61849" lon="4.04768">
        <ele>1279</ele>
        <time>2016-05-12T16:19:07Z</time>
      </trkpt>
      <trkpt lat="44.61801" lon="4.04749">
        <ele>1286</ele>
        <time>2016-05-12T16:19:08Z</time>
      </trkpt>
      <trkpt lat="44.61794" lon="4.04654">
        <ele>1276</ele>
        <time>2016-05-12T16:19:09Z</time>
      </trkpt>
      <trkpt lat="44.61758" lon="4.0456">
        <ele>1278</ele>
        <time>2016-05-12T16:19:10Z</time>
      </trkpt>
      <trkpt lat="44.6179" lon="4.04474">
        <ele>1261</ele>
        <time>2016-05-12T16:19:11Z</time>
      </trkpt>
      <trkpt lat="44.61681" lon="4.04418">
        <ele>1285</ele>
        <time>2016-05-12T16:19:12Z</time>
      </trkpt>
      <trkpt lat="44.61648" lon="4.04393">
        <ele>1290</ele>
        <time>2016-05-12T16:19:13Z</time>
      </trkpt>
      <trkpt lat="44.6162" lon="4.04296">
        <ele>1271</ele>
        <time>2016-05-12T16:19:14Z</time>
      </trkpt>
      <trkpt lat="44.61593" lon="4.04255">
        <ele>1274</ele>
        <time>2016-05-12T16:19:15Z</time>
      </trkpt>
      <trkpt lat="44.61542" lon="4.04238">
        <ele>1262</ele>
        <time>2016-05-12T16:19:16Z</time>
      </trkpt>
      <trkpt lat="44.61486" lon="4.04268">
        <ele>1271</ele>
        <time>2016-05-12T16:19:17Z</time>
      </trkpt>
      <trkpt lat="44.61419" lon="4.04307">
        <ele>1275</ele>
        <time>2016-05-12T16:19:18Z</time>
      </trkpt>
      <trkpt lat="44.61385" lon="4.04324">
        <ele>1270</ele>
        <time>2016-05-12T16:19:19Z</time>
      </trkpt>
      <trkpt lat="44.61332" lon="4.04313">
        <ele>1273</ele>
        <time>2016-05-12T16:19:20Z</time>
      </trkpt>
      <trkpt lat="44.61268" lon="4.04311">
        <ele>1274</ele>
        <time>2016-05-12T16:19:21Z</time>
      </trkpt>
      <trkpt lat="44.61217" lon="4.04354">
        <ele>1303</ele>
        <time>2016-05-12T16:19:22Z</time>
      </trkpt>
      <trkpt lat="44.61214" lon="4.04225">
        <ele>1290</ele>
        <time>2016-05-12T16:19:23Z</time>
      </trkpt>
      <trkpt lat="44.6122" lon="4.04088">
        <ele>1289</ele>
        <time>2016-05-12T16:19:24Z</time>
      </trkpt>
      <trkpt lat="44.61211" lon="4.04073">
        <ele>1290</ele>
        <time>2016-05-12T16:19:25Z</time>
      </trkpt>
      <trkpt lat="44.61185" lon="4.03923">
        <ele>1286</ele>
        <time>2016-05-12T16:19:26Z</time>
      </trkpt>
      <trkpt lat="44.61167" lon="4.03845">
        <ele>1274</ele>
        <time>2016-05-12T16:19:27Z</time>
      </trkpt>
      <trkpt lat="44.61138" lon="4.03794">
        <ele>1283</ele>
        <time>2016-05-12T16:19:28Z</time>
      </trkpt>
      <trkpt lat="44.61116" lon="4.03751">
        <ele>1286</ele>
        <time>2016-05-12T16:19:29Z</time>
      </trkpt>
      <trkpt lat="44.61151" lon="4.03603">
        <ele>1281</ele>
        <time>2016-05-12T16:19:30Z</time>
      </trkpt>
      <trkpt lat="44.61129" lon="4.03488">
        <ele>1301</ele>
        <time>2016-05-12T16:19:31Z</time>
      </trkpt>
      <trkpt lat="44.61151" lon="4.0343">
        <ele>1303</ele>
        <time>2016-05-12T16:19:32Z</time>
      </trkpt>
      <trkpt lat="44.61303" lon="4.0333">
        <ele>1295</ele>
        <time>2016-05-12T16:19:33Z</time>
      </trkpt>
      <trkpt lat="44.61314" lon="4.03147">
        <ele>1285</ele>
        <time>2016-05-12T16:19:34Z</time>
      </trkpt>
      <trkpt lat="44.6128" lon="4.03034">
        <ele>1278</ele>
        <time>2016-05-12T16:19:35Z</time>
      </trkpt>
      <trkpt lat="44.61221" lon="4.02972">
        <ele>1283</ele>
        <time>2016-05-12T16:19:36Z</time>
      </trkpt>
      <trkpt lat="44.61195" lon="4.02948">
        <ele>1284</ele>
        <time>2016-05-12T16:19:37Z</time>
      </trkpt>
      <trkpt lat="44.61167" lon="4.02912">
        <ele>1282</ele>
        <time>2016-05-12T16:19:38Z</time>
      </trkpt>
      <trkpt lat="44.61113" lon="4.02897">
        <ele>1285</ele>
        <time>2016-05-12T16:19:39Z</time>
      </trkpt>
      <trkpt lat="44.61083" lon="4.02901">
        <ele>1288</ele>
        <time>2016-05-12T16:19:40Z</time>
      </trkpt>
      <trkpt lat="44.6105" lon="4.02914">
        <ele>1283</ele>
        <time>2016-05-12T16:19:41Z</time>
      </trkpt>
      <trkpt lat="44.61073" lon="4.02921">
        <ele>1295</ele>
        <time>2016-05-12T16:19:42Z</time>
      </trkpt>
      <trkpt lat="44.61097" lon="4.02929">
        <ele>1298</ele>
        <time>2016-05-12T16:19:43Z</time>
      </trkpt>
      <trkpt lat="44.61144" lon="4.03005">
        <ele>1308</ele>
        <time>2016-05-12T16:19:44Z</time>
      </trkpt>
      <trkpt lat="44.61189" lon="4.03112">
        <ele>1312</ele>
        <time>2016-05-12T16:19:45Z</time>
      </trkpt>
      <trkpt lat="44.61204" lon="4.03201">
        <ele>1318</ele>
        <time>2016-05-12T16:19:46Z</time>
      </trkpt>
      <trkpt lat="44.61185" lon="4.03263">
        <ele>1321</ele>
        <time>2016-05-12T16:19:47Z</time>
      </trkpt>
      <trkpt lat="44.61126" lon="4.03285">
        <ele>1327</ele>
        <time>2016-05-12T16:19:48Z</time>
      </trkpt>
      <trkpt lat="44.61008" lon="4.03303">
        <ele>1324</ele>
        <time>2016-05-12T16:19:49Z</time>
      </trkpt>
      <trkpt lat="44.60976" lon="4.03335">
        <ele>1327</ele>
        <time>2016-05-12T16:19:50Z</time>
      </trkpt>
      <trkpt lat="44.60945" lon="4.03366">
        <ele>1326</ele>
        <time>2016-05-12T16:19:51Z</time>
      </trkpt>
      <trkpt lat="44.60885" lon="4.03402">
        <ele>1316</ele>
        <time>2016-05-12T16:19:52Z</time>
      </trkpt>
      <trkpt lat="44.60776" lon="4.03686">
        <ele>1350</ele>
        <time>2016-05-12T16:19:53Z</time>
      </trkpt>
      <trkpt lat="44.60783" lon="4.03788">
        <ele>1356</ele>
        <time>2016-05-12T16:19:54Z</time>
      </trkpt>
      <trkpt lat="44.60787" lon="4.04119">
        <ele>1367</ele>
        <time>2016-05-12T16:19:55Z</time>
      </trkpt>
      <trkpt lat="44.60848" lon="4.04278">
        <ele>1374</ele>
        <time>2016-05-12T16:19:56Z</time>
      </trkpt>
      <trkpt lat="44.60875" lon="4.04295">
        <ele>1375</ele>
        <time>2016-05-12T16:19:57Z</time>
      </trkpt>
      <trkpt lat="44.60921" lon="4.04351">
        <ele>1380</ele>
        <time>2016-05-12T16:19:58Z</time>
      </trkpt>
      <trkpt lat="44.60907" lon="4.044">
        <ele>1382</ele>
        <time>2016-05-12T16:19:59Z</time>
      </trkpt>
      <trkpt lat="44.60889" lon="4.04456">
        <ele>1385</ele>
        <time>2016-05-12T16:20:00Z</time>
      </trkpt>
      <trkpt lat="44.60894" lon="4.04486">
        <ele>1388</ele>
        <time>2016-05-12T16:20:01Z</time>
      </trkpt>
      <trkpt lat="44.60845" lon="4.0457">
        <ele>1395</ele>
        <time>2016-05-12T16:20:02Z</time>
      </trkpt>
      <trkpt lat="44.60802" lon="4.04705">
        <ele>1403</ele>
        <time>2016-05-12T16:20:03Z</time>
      </trkpt>
      <trkpt lat="44.60808" lon="4.04827">
        <ele>1409</ele>
        <time>2016-05-12T16:20:04Z</time>
      </trkpt>
      <trkpt lat="44.60776" lon="4.04894">
        <ele>1410</ele>
        <time>2016-05-12T16:20:05Z</time>
      </trkpt>
      <trkpt lat="44.60762" lon="4.05042">
        <ele>1413</ele>
        <time>2016-05-12T16:20:06Z</time>
      </trkpt>
      <trkpt lat="44.60785" lon="4.05158">
        <ele>1412</ele>
        <time>2016-05-12T16:20:07Z</time>
      </trkpt>
      <trkpt lat="44.60822" lon="4.05323">
        <ele>1413</ele>
        <time>2016-05-12T16:20:08Z</time>
      </trkpt>
      <trkpt lat="44.60875" lon="4.05497">
        <ele>1399</ele>
        <time>2016-05-12T16:20:09Z</time>
      </trkpt>
      <trkpt lat="44.60921" lon="4.0549">
        <ele>1396</ele>
        <time>2016-05-12T16:20:10Z</time>
      </trkpt>
      <trkpt lat="44.60973" lon="4.05537">
        <ele>1390</ele>
        <time>2016-05-12T16:20:11Z</time>
      </trkpt>
      <trkpt lat="44.60984" lon="4.05638">
        <ele>1384</ele>
        <time>2016-05-12T16:20:12Z</time>
      </trkpt>
      <trkpt lat="44.60953" lon="4.05722">
        <ele>1377</ele>
        <time>2016-05-12T16:20:13Z</time>
      </trkpt>
      <trkpt lat="44.60883" lon="4.05791">
        <ele>1369</ele>
        <time>2016-05-12T16:20:14Z</time>
      </trkpt>
      <trkpt lat="44.60851" lon="4.05838">
        <ele>1368</ele>
        <time>2016-05-12T16:20:15Z</time>
      </trkpt>
      <trkpt lat="44.6081" lon="4.05889">
        <ele>1361</ele>
        <time>2016-05-12T16:20:16Z</time>
      </trkpt>
      <trkpt lat="44.60778" lon="4.05949">
        <ele>1364</ele>
        <time>2016-05-12T16:20:17Z</time>
      </trkpt>
      <trkpt lat="44.60712" lon="4.06005">
        <ele>1360</ele>
        <time>2016-05-12T16:20:18Z</time>
      </trkpt>
      <trkpt lat="44.60677" lon="4.0605">
        <ele>1360</ele>
        <time>2016-05-12T16:20:19Z</time>
      </trkpt>
      <trkpt lat="44.60623" lon="4.06091">
        <ele>1356</ele>
        <time>2016-05-12T16:20:20Z</time>
      </trkpt>
      <trkpt lat="44.60521" lon="4.06181">
        <ele>1351</ele>
        <time>2016-05-12T16:20:21Z</time>
      </trkpt>
      <trkpt lat="44.60434" lon="4.06239">
        <ele>1336</ele>
        <time>2016-05-12T16:20:22Z</time>
      </trkpt>
      <trkpt lat="44.60448" lon="4.0657">
        <ele>1325</ele>
        <time>2016-05-12T16:20:23Z</time>
      </trkpt>
      <trkpt lat="44.60411" lon="4.06415">
        <ele>1315</ele>
        <time>2016-05-12T16:20:24Z</time>
      </trkpt>
      <trkpt lat="44.60348" lon="4.06303">
        <ele>1303</ele>
        <time>2016-05-12T16:20:25Z</time>
      </trkpt>
      <trkpt lat="44.60333" lon="4.06164">
        <ele>1293</ele>
        <time>2016-05-12T16:20:26Z</time>
      </trkpt>
      <trkpt lat="44.60344" lon="4.06104">
        <ele>1295</ele>
        <time>2016-05-12T16:20:27Z</time>
      </trkpt>
      <trkpt lat="44.60437" lon="4.06025">
        <ele>1295</ele>
        <time>2016-05-12T16:20:28Z</time>
      </trkpt>
      <trkpt lat="44.60504" lon="4.059">
        <ele>1282</ele>
        <time>2016-05-12T16:20:29Z</time>
      </trkpt>
      <trkpt lat="44.60567" lon="4.05808">
        <ele>1278</ele>
        <time>2016-05-12T16:20:30Z</time>
      </trkpt>
      <trkpt lat="44.60504" lon="4.05722">
        <ele>1276</ele>
        <time>2016-05-12T16:20:31Z</time>
      </trkpt>
      <trkpt lat="44.60425" lon="4.05701">
        <ele>1263</ele>
        <time>2016-05-12T16:20:32Z</time>
      </trkpt>
      <trkpt lat="44.60335" lon="4.05655">
        <ele>1255</ele>
        <time>2016-05-12T16:20:33Z</time>
      </trkpt>
      <trkpt lat="44.60307" lon="4.05567">
        <ele>1251</ele>
        <time>2016-05-12T16:20:34Z</time>
      </trkpt>
      <trkpt lat="44.6027" lon="4.05387">
        <ele>1245</ele>
        <time>2016-05-12T16:20:35Z</time>
      </trkpt>
      <trkpt lat="44.60238" lon="4.05289">
        <ele>1232</ele>
        <time>2016-05-12T16:20:36Z</time>
      </trkpt>
      <trkpt lat="44.60168" lon="4.0522">
        <ele>1234</ele>
        <time>2016-05-12T16:20:37Z</time>
      </trkpt>
      <trkpt lat="44.60105" lon="4.0511">
        <ele>1223</ele>
        <time>2016-05-12T16:20:38Z</time>
      </trkpt>
      <trkpt lat="44.60082" lon="4.05102">
        <ele>1216</ele>
        <time>2016-05-12T16:20:39Z</time>
      </trkpt>
      <trkpt lat="44.6007" lon="4.05078">
        <ele>1217</ele>
        <time>2016-05-12T16:20:40Z</time>
      </trkpt>
      <trkpt lat="44.60034" lon="4.05055">
        <ele>1214</ele>
        <time>2016-05-12T16:20:41Z</time>
      </trkpt>
      <trkpt lat="44.60009" lon="4.05022">
        <ele>1210</ele>
        <time>2016-05-12T16:20:42Z</time>
      </trkpt>
      <trkpt lat="44.59994" lon="4.04995">
        <ele>1203</ele>
        <time>2016-05-12T16:20:43Z</time>
      </trkpt>
      <trkpt lat="44.59965" lon="4.04997">
        <ele>1198</ele>
        <time>2016-05-12T16:20:44Z</time>
      </trkpt>
      <trkpt lat="44.59876" lon="4.05018">
        <ele>1187</ele>
        <time>2016-05-12T16:20:45Z</time>
      </trkpt>
      <trkpt lat="44.59821" lon="4.05014">
        <ele>1181</ele>
        <time>2016-05-12T16:20:46Z</time>
      </trkpt>
      <trkpt lat="44.59801" lon="4.04999">
        <ele>1179</ele>
        <time>2016-05-12T16:20:47Z</time>
      </trkpt>
      <trkpt lat="44.59754" lon="4.05095">
        <ele>1172</ele>
        <time>2016-05-12T16:20:48Z</time>
      </trkpt>
      <trkpt lat="44.59736" lon="4.05196">
        <ele>1157</ele>
        <time>2016-05-12T16:20:49Z</time>
      </trkpt>
      <trkpt lat="44.59693" lon="4.05248">
        <ele>1154</ele>
        <time>2016-05-12T16:20:50Z</time>
      </trkpt>
      <trkpt lat="44.59655" lon="4.05346">
        <ele>1144</ele>
        <time>2016-05-12T16:20:51Z</time>
      </trkpt>
      <trkpt lat="44.5961" lon="4.05452">
        <ele>1138</ele>
        <time>2016-05-12T16:20:52Z</time>
      </trkpt>
      <trkpt lat="44.59572" lon="4.05565">
        <ele>1136</ele>
        <time>2016-05-12T16:20:53Z</time>
      </trkpt>
      <trkpt lat="44.59548" lon="4.05651">
        <ele>1139</ele>
        <time>2016-05-12T16:20:54Z</time>
      </trkpt>
      <trkpt lat="44.59488" lon="4.05846">
        <ele>1158</ele>
        <time>2016-05-12T16:20:55Z</time>
      </trkpt>
      <trkpt lat="44.59458" lon="4.05904">
        <ele>1161</ele>
        <time>2016-05-12T16:20:56Z</time>
      </trkpt>
      <trkpt lat="44.59416" lon="4.05956">
        <ele>1170</ele>
        <time>2016-05-12T16:20:57Z</time>
      </trkpt>
      <trkpt lat="44.59375" lon="4.06029">
        <ele>1171</ele>
        <time>2016-05-12T16:20:58Z</time>
      </trkpt>
      <trkpt lat="44.59314" lon="4.06074">
        <ele>1179</ele>
        <time>2016-05-12T16:20:59Z</time>
      </trkpt>
      <trkpt lat="44.59259" lon="4.06143">
        <ele>1191</ele>
        <time>2016-05-12T16:21:00Z</time>
      </trkpt>
      <trkpt lat="44.59137" lon="4.06207">
        <ele>1203</ele>
        <time>2016-05-12T16:21:01Z</time>
      </trkpt>
      <trkpt lat="44.59065" lon="4.06271">
        <ele>1215</ele>
        <time>2016-05-12T16:21:02Z</time>
      </trkpt>
      <trkpt lat="44.59001" lon="4.0631">
        <ele>1218</ele>
        <time>2016-05-12T16:21:03Z</time>
      </trkpt>
      <trkpt lat="44.58979" lon="4.06391">
        <ele>1215</ele>
        <time>2016-05-12T16:21:04Z</time>
      </trkpt>
      <trkpt lat="44.58964" lon="4.06494">
        <ele>1211</ele>
        <time>2016-05-12T16:21:05Z</time>
      </trkpt>
      <trkpt lat="44.58912" lon="4.06593">
        <ele>1202</ele>
        <time>2016-05-12T16:21:06Z</time>
      </trkpt>
      <trkpt lat="44.589" lon="4.0652">
        <ele>1197</ele>
        <time>2016-05-12T16:21:07Z</time>
      </trkpt>
      <trkpt lat="44.58839" lon="4.06563">
        <ele>1192</ele>
        <time>2016-05-12T16:21:08Z</time>
      </trkpt>
      <trkpt lat="44.5875" lon="4.06597">
        <ele>1177</ele>
        <time>2016-05-12T16:21:09Z</time>
      </trkpt>
      <trkpt lat="44.58698" lon="4.0658">
        <ele>1172</ele>
        <time>2016-05-12T16:21:10Z</time>
      </trkpt>
      <trkpt lat="44.58646" lon="4.06512">
        <ele>1167</ele>
        <time>2016-05-12T16:21:11Z</time>
      </trkpt>
      <trkpt lat="44.58557" lon="4.06469">
        <ele>1152</ele>
        <time>2016-05-12T16:21:12Z</time>
      </trkpt>
      <trkpt lat="44.5849" lon="4.06537">
        <ele>1139</ele>
        <time>2016-05-12T16:21:13Z</time>
      </trkpt>
      <trkpt lat="44.5857" lon="4.06688">
        <ele>1143</ele>
        <time>2016-05-12T16:21:14Z</time>
      </trkpt>
      <trkpt lat="44.58622" lon="4.06765">
        <ele>1145</ele>
        <time>2016-05-12T16:21:15Z</time>
      </trkpt>
      <trkpt lat="44.58646" lon="4.06833">
        <ele>1143</ele>
        <time>2016-05-12T16:21:16Z</time>
      </trkpt>
      <trkpt lat="44.58518" lon="4.06782">
        <ele>1149</ele>
        <time>2016-05-12T16:21:17Z</time>
      </trkpt>
      <trkpt lat="44.58386" lon="4.06735">
        <ele>1156</ele>
        <time>2016-05-12T16:21:18Z</time>
      </trkpt>
      <trkpt lat="44.58295" lon="4.06709">
        <ele>1170</ele>
        <time>2016-05-12T16:21:19Z</time>
      </trkpt>
      <trkpt lat="44.58258" lon="4.06692">
        <ele>1173</ele>
        <time>2016-05-12T16:21:20Z</time>
      </trkpt>
      <trkpt lat="44.582" lon="4.06555">
        <ele>1178</ele>
        <time>2016-05-12T16:21:21Z</time>
      </trkpt>
      <trkpt lat="44.58133" lon="4.06443">
        <ele>1192</ele>
        <time>2016-05-12T16:21:22Z</time>
      </trkpt>
      <trkpt lat="44.58038" lon="4.06413">
        <ele>1195</ele>
        <time>2016-05-12T16:21:23Z</time>
      </trkpt>
      <trkpt lat="44.57873" lon="4.06555">
        <ele>1199</ele>
        <time>2016-05-12T16:21:24Z</time>
      </trkpt>
      <trkpt lat="44.57946" lon="4.06396">
        <ele>1182</ele>
        <time>2016-05-12T16:21:25Z</time>
      </trkpt>
      <trkpt lat="44.58004" lon="4.06246">
        <ele>1170</ele>
        <time>2016-05-12T16:21:26Z</time>
      </trkpt>
      <trkpt lat="44.58099" lon="4.06147">
        <ele>1157</ele>
        <time>2016-05-12T16:21:27Z</time>
      </trkpt>
      <trkpt lat="44.58182" lon="4.06155">
        <ele>1153</ele>
        <time>2016-05-12T16:21:28Z</time>
      </trkpt>
      <trkpt lat="44.58313" lon="4.0628">
        <ele>1150</ele>
        <time>2016-05-12T16:21:29Z</time>
      </trkpt>
      <trkpt lat="44.58337" lon="4.06447">
        <ele>1136</ele>
        <time>2016-05-12T16:21:30Z</time>
      </trkpt>
      <trkpt lat="44.58371" lon="4.06203">
        <ele>1127</ele>
        <time>2016-05-12T16:21:31Z</time>
      </trkpt>
      <trkpt lat="44.58285" lon="4.06121">
        <ele>1127</ele>
        <time>2016-05-12T16:21:32Z</time>
      </trkpt>
      <trkpt lat="44.5816" lon="4.05894">
        <ele>1102</ele>
        <time>2016-05-12T16:21:33Z</time>
      </trkpt>
      <trkpt lat="44.58139" lon="4.05859">
        <ele>1097</ele>
        <time>2016-05-12T16:21:34Z</time>
      </trkpt>
      <trkpt lat="44.58093" lon="4.05864">
        <ele>1096</ele>
        <time>2016-05-12T16:21:35Z</time>
      </trkpt>
      <trkpt lat="44.58044" lon="4.05911">
        <ele>1100</ele>
        <time>2016-05-12T16:21:36Z</time>
      </trkpt>
      <trkpt lat="44.58093" lon="4.05821">
        <ele>1089</ele>
        <time>2016-05-12T16:21:37Z</time>
      </trkpt>
      <trkpt lat="44.58185" lon="4.05795">
        <ele>1098</ele>
        <time>2016-05-12T16:21:38Z</time>
      </trkpt>
      <trkpt lat="44.5812" lon="4.05765">
        <ele>1087</ele>
        <time>2016-05-12T16:21:39Z</time>
      </trkpt>
      <trkpt lat="44.58108" lon="4.05709">
        <ele>1086</ele>
        <time>2016-05-12T16:21:40Z</time>
      </trkpt>
      <trkpt lat="44.58185" lon="4.05598">
        <ele>1089</ele>
        <time>2016-05-12T16:21:41Z</time>
      </trkpt>
      <trkpt lat="44.58289" lon="4.0549">
        <ele>1092</ele>
        <time>2016-05-12T16:21:42Z</time>
      </trkpt>
      <trkpt lat="44.58337" lon="4.05417">
        <ele>1088</ele>
        <time>2016-05-12T16:21:43Z</time>
      </trkpt>
      <trkpt lat="44.58331" lon="4.05301">
        <ele>1098</ele>
        <time>2016-05-12T16:21:44Z</time>
      </trkpt>
      <trkpt lat="44.58334" lon="4.05237">
        <ele>1090</ele>
        <time>2016-05-12T16:21:45Z</time>
      </trkpt>
      <trkpt lat="44.58154" lon="4.0528">
        <ele>1110</ele>
        <time>2016-05-12T16:21:46Z</time>
      </trkpt>
      <trkpt lat="44.58078" lon="4.05263">
        <ele>1114</ele>
        <time>2016-05-12T16:21:47Z</time>
      </trkpt>
      <trkpt lat="44.5816" lon="4.0531">
        <ele>1115</ele>
        <time>2016-05-12T16:21:48Z</time>
      </trkpt>
      <trkpt lat="44.58252" lon="4.05319">
        <ele>1110</ele>
        <time>2016-05-12T16:21:49Z</time>
      </trkpt>
      <trkpt lat="44.58185" lon="4.05404">
        <ele>1125</ele>
        <time>2016-05-12T16:21:50Z</time>
      </trkpt>
      <trkpt lat="44.58114" lon="4.05439">
        <ele>1134</ele>
        <time>2016-05-12T16:21:51Z</time>
      </trkpt>
      <trkpt lat="44.58016" lon="4.0549">
        <ele>1145</ele>
        <time>2016-05-12T16:21:52Z</time>
      </trkpt>
      <trkpt lat="44.57934" lon="4.0546">
        <ele>1157</ele>
        <time>2016-05-12T16:21:53Z</time>
      </trkpt>
      <trkpt lat="44.57958" lon="4.05392">
        <ele>1160</ele>
        <time>2016-05-12T16:21:54Z</time>
      </trkpt>
      <trkpt lat="44.57851" lon="4.05323">
        <ele>1170</ele>
        <time>2016-05-12T16:21:55Z</time>
      </trkpt>
      <trkpt lat="44.57665" lon="4.05198">
        <ele>1185</ele>
        <time>2016-05-12T16:21:56Z</time>
      </trkpt>
      <trkpt lat="44.5754" lon="4.04962">
        <ele>1185</ele>
        <time>2016-05-12T16:21:57Z</time>
      </trkpt>
      <trkpt lat="44.575" lon="4.04954">
        <ele>1172</ele>
        <time>2016-05-12T16:21:58Z</time>
      </trkpt>
      <trkpt lat="44.57527" lon="4.04465">
        <ele>1186</ele>
        <time>2016-05-12T16:21:59Z</time>
      </trkpt>
      <trkpt lat="44.57567" lon="4.04301">
        <ele>1186</ele>
        <time>2016-05-12T16:22:00Z</time>
      </trkpt>
      <trkpt lat="44.57512" lon="4.0416">
        <ele>1191</ele>
        <time>2016-05-12T16:22:01Z</time>
      </trkpt>
      <trkpt lat="44.57567" lon="4.04014">
        <ele>1191</ele>
        <time>2016-05-12T16:22:02Z</time>
      </trkpt>
      <trkpt lat="44.57582" lon="4.03756">
        <ele>1189</ele>
        <time>2016-05-12T16:22:03Z</time>
      </trkpt>
      <trkpt lat="44.57485" lon="4.03636">
        <ele>1189</ele>
        <time>2016-05-12T16:22:04Z</time>
      </trkpt>
      <trkpt lat="44.57375" lon="4.03563">
        <ele>1190</ele>
        <time>2016-05-12T16:22:05Z</time>
      </trkpt>
      <trkpt lat="44.57301" lon="4.03525">
        <ele>1184</ele>
        <time>2016-05-12T16:22:06Z</time>
      </trkpt>
      <trkpt lat="44.57191" lon="4.0337">
        <ele>1186</ele>
        <time>2016-05-12T16:22:07Z</time>
      </trkpt>
      <trkpt lat="44.57112" lon="4.03267">
        <ele>1184</ele>
        <time>2016-05-12T16:22:08Z</time>
      </trkpt>
      <trkpt lat="44.57054" lon="4.03233">
        <ele>1183</ele>
        <time>2016-05-12T16:22:09Z</time>
      </trkpt>
      <trkpt lat="44.56992" lon="4.03207">
        <ele>1183</ele>
        <time>2016-05-12T16:22:10Z</time>
      </trkpt>
      <trkpt lat="44.56904" lon="4.03224">
        <ele>1177</ele>
        <time>2016-05-12T16:22:11Z</time>
      </trkpt>
      <trkpt lat="44.56812" lon="4.03203">
        <ele>1168</ele>
        <time>2016-05-12T16:22:12Z</time>
      </trkpt>
      <trkpt lat="44.5665" lon="4.031">
        <ele>1147</ele>
        <time>2016-05-12T16:22:13Z</time>
      </trkpt>
      <trkpt lat="44.56537" lon="4.02975">
        <ele>1138</ele>
        <time>2016-05-12T16:22:14Z</time>
      </trkpt>
      <trkpt lat="44.56451" lon="4.02838">
        <ele>1126</ele>
        <time>2016-05-12T16:22:15Z</time>
      </trkpt>
      <trkpt lat="44.56369" lon="4.02808">
        <ele>1124</ele>
        <time>2016-05-12T16:22:16Z</time>
      </trkpt>
      <trkpt lat="44.56179" lon="4.02615">
        <ele>1122</ele>
        <time>2016-05-12T16:22:17Z</time>
      </trkpt>
      <trkpt lat="44.5617" lon="4.02542">
        <ele>1128</ele>
        <time>2016-05-12T16:22:18Z</time>
      </trkpt>
      <trkpt lat="44.56081" lon="4.02417">
        <ele>1128</ele>
        <time>2016-05-12T16:22:19Z</time>
      </trkpt>
      <trkpt lat="44.55999" lon="4.0216">
        <ele>1108</ele>
        <time>2016-05-12T16:22:20Z</time>
      </trkpt>
      <trkpt lat="44.55892" lon="4.02126">
        <ele>1114</ele>
        <time>2016-05-12T16:22:21Z</time>
      </trkpt>
      <trkpt lat="44.55797" lon="4.01945">
        <ele>1137</ele>
        <time>2016-05-12T16:22:22Z</time>
      </trkpt>
      <trkpt lat="44.55751" lon="4.01928">
        <ele>1138</ele>
        <time>2016-05-12T16:22:23Z</time>
      </trkpt>
      <trkpt lat="44.55693" lon="4.0183">
        <ele>1143</ele>
        <time>2016-05-12T16:22:24Z</time>
      </trkpt>
      <trkpt lat="44.55589" lon="4.01679">
        <ele>1142</ele>
        <time>2016-05-12T16:22:25Z</time>
      </trkpt>
      <trkpt lat="44.55485" lon="4.01546">
        <ele>1134</ele>
        <time>2016-05-12T16:22:26Z</time>
      </trkpt>
      <trkpt lat="44.55415" lon="4.01413">
        <ele>1129</ele>
        <time>2016-05-12T16:22:27Z</time>
      </trkpt>
      <trkpt lat="44.5535" lon="4.01315">
        <ele>1121</ele>
        <time>2016-05-12T16:22:28Z</time>
      </trkpt>
      <trkpt lat="44.55271" lon="4.01224">
        <ele>1117</ele>
        <time>2016-05-12T16:22:29Z</time>
      </trkpt>
      <trkpt lat="44.55213" lon="4.01096">
        <ele>1122</ele>
        <time>2016-05-12T16:22:30Z</time>
      </trkpt>
      <trkpt lat="44.55133" lon="4.01018">
        <ele>1129</ele>
        <time>2016-05-12T16:22:31Z</time>
      </trkpt>
      <trkpt lat="44.55045" lon="4.00954">
        <ele>1136</ele>
        <time>2016-05-12T16:22:32Z</time>
      </trkpt>
      <trkpt lat="44.54928" lon="4.00907">
        <ele>1139</ele>
        <time>2016-05-12T16:22:33Z</time>
      </trkpt>
      <trkpt lat="44.54818" lon="4.00885">
        <ele>1142</ele>
        <time>2016-05-12T16:22:34Z</time>
      </trkpt>
      <trkpt lat="44.54693" lon="4.00894">
        <ele>1140</ele>
        <time>2016-05-12T16:22:35Z</time>
      </trkpt>
      <trkpt lat="44.54494" lon="4.00928">
        <ele>1140</ele>
        <time>2016-05-12T16:22:36Z</time>
      </trkpt>
      <trkpt lat="44.54228" lon="4.01014">
        <ele>1129</ele>
        <time>2016-05-12T16:22:37Z</time>
      </trkpt>
      <trkpt lat="44.53983" lon="4.00834">
        <ele>1114</ele>
        <time>2016-05-12T16:22:38Z</time>
      </trkpt>
      <trkpt lat="44.53876" lon="4.00739">
        <ele>1109</ele>
        <time>2016-05-12T16:22:39Z</time>
      </trkpt>
      <trkpt lat="44.53806" lon="4.00658">
        <ele>1105</ele>
        <time>2016-05-12T16:22:40Z</time>
      </trkpt>
      <trkpt lat="44.53748" lon="4.00615">
        <ele>1106</ele>
        <time>2016-05-12T16:22:41Z</time>
      </trkpt>
      <trkpt lat="44.5369" lon="4.00551">
        <ele>1100</ele>
        <time>2016-05-12T16:22:42Z</time>
      </trkpt>
      <trkpt lat="44.53592" lon="4.00585">
        <ele>1104</ele>
        <time>2016-05-12T16:22:43Z</time>
      </trkpt>
      <trkpt lat="44.53531" lon="4.00529">
        <ele>1096</ele>
        <time>2016-05-12T16:22:44Z</time>
      </trkpt>
      <trkpt lat="44.53494" lon="4.00473">
        <ele>1086</ele>
        <time>2016-05-12T16:22:45Z</time>
      </trkpt>
      <trkpt lat="44.53485" lon="4.00383">
        <ele>1080</ele>
        <time>2016-05-12T16:22:46Z</time>
      </trkpt>
      <trkpt lat="44.53531" lon="4.00319">
        <ele>1079</ele>
        <time>2016-05-12T16:22:47Z</time>
      </trkpt>
      <trkpt lat="44.53527" lon="4.0019">
        <ele>1081</ele>
        <time>2016-05-12T16:22:48Z</time>
      </trkpt>
      <trkpt lat="44.53564" lon="4.0007">
        <ele>1082</ele>
        <time>2016-05-12T16:22:49Z</time>
      </trkpt>
      <trkpt lat="44.53549" lon="3.99916">
        <ele>1072</ele>
        <time>2016-05-12T16:22:50Z</time>
      </trkpt>
      <trkpt lat="44.53451" lon="3.99864">
        <ele>1080</ele>
        <time>2016-05-12T16:22:51Z</time>
      </trkpt>
      <trkpt lat="44.53359" lon="3.99757">
        <ele>1078</ele>
        <time>2016-05-12T16:22:52Z</time>
      </trkpt>
      <trkpt lat="44.53261" lon="3.99787">
        <ele>1081</ele>
        <time>2016-05-12T16:22:53Z</time>
      </trkpt>
      <trkpt lat="44.53188" lon="3.99868">
        <ele>1084</ele>
        <time>2016-05-12T16:22:54Z</time>
      </trkpt>
      <trkpt lat="44.52891" lon="3.99894">
        <ele>1086</ele>
        <time>2016-05-12T16:22:55Z</time>
      </trkpt>
      <trkpt lat="44.52772" lon="3.99843">
        <ele>1081</ele>
        <time>2016-05-12T16:22:56Z</time>
      </trkpt>
      <trkpt lat="44.52674" lon="3.99834">
        <ele>1081</ele>
        <time>2016-05-12T16:22:57Z</time>
      </trkpt>
      <trkpt lat="44.52484" lon="3.99765">
        <ele>1072</ele>
        <time>2016-05-12T16:22:58Z</time>
      </trkpt>
      <trkpt lat="44.52163" lon="3.99851">
        <ele>1055</ele>
        <time>2016-05-12T16:22:59Z</time>
      </trkpt>
      <trkpt lat="44.52053" lon="3.99933">
        <ele>1048</ele>
        <time>2016-05-12T16:23:00Z</time>
      </trkpt>
      <trkpt lat="44.51982" lon="4.00169">
        <ele>1043</ele>
        <time>2016-05-12T16:23:01Z</time>
      </trkpt>
      <trkpt lat="44.51894" lon="4.00263">
        <ele>1041</ele>
        <time>2016-05-12T16:23:02Z</time>
      </trkpt>
      <trkpt lat="44.52022" lon="4.0034">
        <ele>1041</ele>
        <time>2016-05-12T16:23:03Z</time>
      </trkpt>
      <trkpt lat="44.52123" lon="4.00495">
        <ele>1039</ele>
        <time>2016-05-12T16:23:04Z</time>
      </trkpt>
      <trkpt lat="44.5235" lon="4.00581">
        <ele>1026</ele>
        <time>2016-05-12T16:23:05Z</time>
      </trkpt>
      <trkpt lat="44.52344" lon="4.0057">
        <ele>1026</ele>
        <time>2016-05-12T16:23:06Z</time>
      </trkpt>
      <trkpt lat="44.52418" lon="4.00583">
        <ele>1026</ele>
        <time>2016-05-12T16:23:07Z</time>
      </trkpt>
      <trkpt lat="44.52452" lon="4.00613">
        <ele>1026</ele>
        <time>2016-05-12T16:23:08Z</time>
      </trkpt>
      <trkpt lat="44.52489" lon="4.00649">
        <ele>1026</ele>
        <time>2016-05-12T16:23:09Z</time>
      </trkpt>
      <trkpt lat="44.52518" lon="4.00692">
        <ele>1029</ele>
        <time>2016-05-12T16:23:10Z</time>
      </trkpt>
      <trkpt lat="44.52538" lon="4.00739">
        <ele>1032</ele>
        <time>2016-05-12T16:23:11Z</time>
      </trkpt>
      <trkpt lat="44.52585" lon="4.00894">
        <ele>1055</ele>
        <time>2016-05-12T16:23:12Z</time>
      </trkpt>
      <trkpt lat="44.52607" lon="4.00952">
        <ele>1063</ele>
        <time>2016-05-12T16:23:13Z</time>
      </trkpt>
      <trkpt lat="44.52645" lon="4.0101">
        <ele>1070</ele>
        <time>2016-05-12T16:23:14Z</time>
      </trkpt>
      <trkpt lat="44.52692" lon="4.01076">
        <ele>1074</ele>
        <time>2016-05-12T16:23:15Z</time>
      </trkpt>
      <trkpt lat="44.52711" lon="4.01109">
        <ele>1075</ele>
        <time>2016-05-12T16:23:16Z</time>
      </trkpt>
      <trkpt lat="44.52738" lon="4.01154">
        <ele>1077</ele>
        <time>2016-05-12T16:23:17Z</time>
      </trkpt>
      <trkpt lat="44.52801" lon="4.0122">
        <ele>1074</ele>
        <time>2016-05-12T16:23:18Z</time>
      </trkpt>
      <trkpt lat="44.52873" lon="4.01229">
        <ele>1067</ele>
        <time>2016-05-12T16:23:19Z</time>
      </trkpt>
      <trkpt lat="44.52942" lon="4.01227">
        <ele>1060</ele>
        <time>2016-05-12T16:23:20Z</time>
      </trkpt>
      <trkpt lat="44.52994" lon="4.01242">
        <ele>1055</ele>
        <time>2016-05-12T16:23:21Z</time>
      </trkpt>
      <trkpt lat="44.53035" lon="4.01289">
        <ele>1049</ele>
        <time>2016-05-12T16:23:22Z</time>
      </trkpt>
      <trkpt lat="44.53084" lon="4.01342">
        <ele>1047</ele>
        <time>2016-05-12T16:23:23Z</time>
      </trkpt>
      <trkpt lat="44.5309" lon="4.01422">
        <ele>1040</ele>
        <time>2016-05-12T16:23:24Z</time>
      </trkpt>
      <trkpt lat="44.53081" lon="4.01493">
        <ele>1032</ele>
        <time>2016-05-12T16:23:25Z</time>
      </trkpt>
      <trkpt lat="44.53085" lon="4.01533">
        <ele>1030</ele>
        <time>2016-05-12T16:23:26Z</time>
      </trkpt>
      <trkpt lat="44.53137" lon="4.01553">
        <ele>1029</ele>
        <time>2016-05-12T16:23:27Z</time>
      </trkpt>
      <trkpt lat="44.53186" lon="4.01551">
        <ele>1030</ele>
        <time>2016-05-12T16:23:28Z</time>
      </trkpt>
      <trkpt lat="44.53246" lon="4.01583">
        <ele>1023</ele>
        <time>2016-05-12T16:23:29Z</time>
      </trkpt>
      <trkpt lat="44.53281" lon="4.01619">
        <ele>1017</ele>
        <time>2016-05-12T16:23:30Z</time>
      </trkpt>
      <trkpt lat="44.53293" lon="4.01673">
        <ele>1003</ele>
        <time>2016-05-12T16:23:31Z</time>
      </trkpt>
      <trkpt lat="44.53394" lon="4.01709">
        <ele>1003</ele>
        <time>2016-05-12T16:23:32Z</time>
      </trkpt>
      <trkpt lat="44.53443" lon="4.01789">
        <ele>992</ele>
        <time>2016-05-12T16:23:33Z</time>
      </trkpt>
      <trkpt lat="44.53501" lon="4.01802">
        <ele>989</ele>
        <time>2016-05-12T16:23:34Z</time>
      </trkpt>
      <trkpt lat="44.53555" lon="4.01842">
        <ele>983</ele>
        <time>2016-05-12T16:23:35Z</time>
      </trkpt>
      <trkpt lat="44.53581" lon="4.0193">
        <ele>985</ele>
        <time>2016-05-12T16:23:36Z</time>
      </trkpt>
      <trkpt lat="44.53602" lon="4.01984">
        <ele>989</ele>
        <time>2016-05-12T16:23:37Z</time>
      </trkpt>
      <trkpt lat="44.53664" lon="4.02001">
        <ele>995</ele>
        <time>2016-05-12T16:23:38Z</time>
      </trkpt>
      <trkpt lat="44.53711" lon="4.01993">
        <ele>998</ele>
        <time>2016-05-12T16:23:39Z</time>
      </trkpt>
      <trkpt lat="44.53619" lon="4.02156">
        <ele>995</ele>
        <time>2016-05-12T16:23:40Z</time>
      </trkpt>
      <trkpt lat="44.53505" lon="4.02089">
        <ele>1000</ele>
        <time>2016-05-12T16:23:41Z</time>
      </trkpt>
      <trkpt lat="44.53446" lon="4.02059">
        <ele>999</ele>
        <time>2016-05-12T16:23:42Z</time>
      </trkpt>
      <trkpt lat="44.53427" lon="4.02072">
        <ele>1003</ele>
        <time>2016-05-12T16:23:43Z</time>
      </trkpt>
      <trkpt lat="44.53506" lon="4.02124">
        <ele>1002</ele>
        <time>2016-05-12T16:23:44Z</time>
      </trkpt>
      <trkpt lat="44.53531" lon="4.02171">
        <ele>1008</ele>
        <time>2016-05-12T16:23:45Z</time>
      </trkpt>
      <trkpt lat="44.53546" lon="4.02263">
        <ele>1014</ele>
        <time>2016-05-12T16:23:46Z</time>
      </trkpt>
      <trkpt lat="44.53615" lon="4.02297">
        <ele>1011</ele>
        <time>2016-05-12T16:23:47Z</time>
      </trkpt>
      <trkpt lat="44.53708" lon="4.02323">
        <ele>1014</ele>
        <time>2016-05-12T16:23:48Z</time>
      </trkpt>
      <trkpt lat="44.5387" lon="4.02276">
        <ele>1022</ele>
        <time>2016-05-12T16:23:49Z</time>
      </trkpt>
      <trkpt lat="44.53864" lon="4.02297">
        <ele>1025</ele>
        <time>2016-05-12T16:23:50Z</time>
      </trkpt>
      <trkpt lat="44.53757" lon="4.02347">
        <ele>1029</ele>
        <time>2016-05-12T16:23:51Z</time>
      </trkpt>
      <trkpt lat="44.53725" lon="4.02379">
        <ele>1029</ele>
        <time>2016-05-12T16:23:52Z</time>
      </trkpt>
      <trkpt lat="44.53659" lon="4.02377">
        <ele>1025</ele>
        <time>2016-05-12T16:23:53Z</time>
      </trkpt>
      <trkpt lat="44.53567" lon="4.02398">
        <ele>1027</ele>
        <time>2016-05-12T16:23:54Z</time>
      </trkpt>
      <trkpt lat="44.53408" lon="4.02385">
        <ele>1037</ele>
        <time>2016-05-12T16:23:55Z</time>
      </trkpt>
      <trkpt lat="44.53295" lon="4.02355">
        <ele>1045</ele>
        <time>2016-05-12T16:23:56Z</time>
      </trkpt>
      <trkpt lat="44.53177" lon="4.02445">
        <ele>1050</ele>
        <time>2016-05-12T16:23:57Z</time>
      </trkpt>
      <trkpt lat="44.5307" lon="4.02488">
        <ele>1054</ele>
        <time>2016-05-12T16:23:58Z</time>
      </trkpt>
      <trkpt lat="44.52931" lon="4.02623">
        <ele>1050</ele>
        <time>2016-05-12T16:23:59Z</time>
      </trkpt>
      <trkpt lat="44.52633" lon="4.02759">
        <ele>1050</ele>
        <time>2016-05-12T16:24:00Z</time>
      </trkpt>
      <trkpt lat="44.52478" lon="4.02868">
        <ele>1055</ele>
        <time>2016-05-12T16:24:01Z</time>
      </trkpt>
      <trkpt lat="44.52337" lon="4.03048">
        <ele>1055</ele>
        <time>2016-05-12T16:24:02Z</time>
      </trkpt>
      <trkpt lat="44.5201" lon="4.03375">
        <ele>1031</ele>
        <time>2016-05-12T16:24:03Z</time>
      </trkpt>
      <trkpt lat="44.51817" lon="4.03628">
        <ele>1019</ele>
        <time>2016-05-12T16:24:04Z</time>
      </trkpt>
      <trkpt lat="44.51701" lon="4.03739">
        <ele>1013</ele>
        <time>2016-05-12T16:24:05Z</time>
      </trkpt>
      <trkpt lat="44.51612" lon="4.03872">
        <ele>999</ele>
        <time>2016-05-12T16:24:06Z</time>
      </trkpt>
      <trkpt lat="44.51551" lon="4.03859">
        <ele>993</ele>
        <time>2016-05-12T16:24:07Z</time>
      </trkpt>
      <trkpt lat="44.51514" lon="4.03799">
        <ele>991</ele>
        <time>2016-05-12T16:24:08Z</time>
      </trkpt>
      <trkpt lat="44.51441" lon="4.03838">
        <ele>982</ele>
        <time>2016-05-12T16:24:09Z</time>
      </trkpt>
      <trkpt lat="44.51367" lon="4.03962">
        <ele>980</ele>
        <time>2016-05-12T16:24:10Z</time>
      </trkpt>
      <trkpt lat="44.51297" lon="4.04053">
        <ele>977</ele>
        <time>2016-05-12T16:24:11Z</time>
      </trkpt>
      <trkpt lat="44.51236" lon="4.0413">
        <ele>972</ele>
        <time>2016-05-12T16:24:12Z</time>
      </trkpt>
      <trkpt lat="44.51257" lon="4.04289">
        <ele>977</ele>
        <time>2016-05-12T16:24:13Z</time>
      </trkpt>
      <trkpt lat="44.51276" lon="4.04422">
        <ele>973</ele>
        <time>2016-05-12T16:24:14Z</time>
      </trkpt>
      <trkpt lat="44.51224" lon="4.04529">
        <ele>965</ele>
        <time>2016-05-12T16:24:15Z</time>
      </trkpt>
      <trkpt lat="44.51132" lon="4.04593">
        <ele>953</ele>
        <time>2016-05-12T16:24:16Z</time>
      </trkpt>
      <trkpt lat="44.51052" lon="4.04623">
        <ele>940</ele>
        <time>2016-05-12T16:24:17Z</time>
      </trkpt>
      <trkpt lat="44.51028" lon="4.04748">
        <ele>928</ele>
        <time>2016-05-12T16:24:18Z</time>
      </trkpt>
      <trkpt lat="44.51089" lon="4.04829">
        <ele>934</ele>
        <time>2016-05-12T16:24:19Z</time>
      </trkpt>
      <trkpt lat="44.51135" lon="4.04941">
        <ele>925</ele>
        <time>2016-05-12T16:24:20Z</time>
      </trkpt>
      <trkpt lat="44.51141" lon="4.05027">
        <ele>919</ele>
        <time>2016-05-12T16:24:21Z</time>
      </trkpt>
      <trkpt lat="44.51107" lon="4.0516">
        <ele>910</ele>
        <time>2016-05-12T16:24:22Z</time>
      </trkpt>
      <trkpt lat="44.51043" lon="4.05357">
        <ele>892</ele>
        <time>2016-05-12T16:24:23Z</time>
      </trkpt>
      <trkpt lat="44.51083" lon="4.05434">
        <ele>884</ele>
        <time>2016-05-12T16:24:24Z</time>
      </trkpt>
      <trkpt lat="44.5104" lon="4.05469">
        <ele>875</ele>
        <time>2016-05-12T16:24:25Z</time>
      </trkpt>
      <trkpt lat="44.50982" lon="4.0546">
        <ele>864</ele>
        <time>2016-05-12T16:24:26Z</time>
      </trkpt>
      <trkpt lat="44.5093" lon="4.054">
        <ele>865</ele>
        <time>2016-05-12T16:24:27Z</time>
      </trkpt>
      <trkpt lat="44.50878" lon="4.05413">
        <ele>847</ele>
        <time>2016-05-12T16:24:28Z</time>
      </trkpt>
      <trkpt lat="44.50829" lon="4.05525">
        <ele>836</ele>
        <time>2016-05-12T16:24:29Z</time>
      </trkpt>
      <trkpt lat="44.50807" lon="4.05623">
        <ele>835</ele>
        <time>2016-05-12T16:24:30Z</time>
      </trkpt>
      <trkpt lat="44.50774" lon="4.05666">
        <ele>837</ele>
        <time>2016-05-12T16:24:31Z</time>
      </trkpt>
      <trkpt lat="44.50734" lon="4.05688">
        <ele>833</ele>
        <time>2016-05-12T16:24:32Z</time>
      </trkpt>
      <trkpt lat="44.507" lon="4.05786">
        <ele>825</ele>
        <time>2016-05-12T16:24:33Z</time>
      </trkpt>
      <trkpt lat="44.50688" lon="4.05868">
        <ele>830</ele>
        <time>2016-05-12T16:24:34Z</time>
      </trkpt>
      <trkpt lat="44.50663" lon="4.05915">
        <ele>845</ele>
        <time>2016-05-12T16:24:35Z</time>
      </trkpt>
      <trkpt lat="44.50636" lon="4.06001">
        <ele>858</ele>
        <time>2016-05-12T16:24:36Z</time>
      </trkpt>
      <trkpt lat="44.50599" lon="4.06022">
        <ele>861</ele>
        <time>2016-05-12T16:24:37Z</time>
      </trkpt>
      <trkpt lat="44.50575" lon="4.06095">
        <ele>869</ele>
        <time>2016-05-12T16:24:38Z</time>
      </trkpt>
      <trkpt lat="44.50513" lon="4.06203">
        <ele>873</ele>
        <time>2016-05-12T16:24:39Z</time>
      </trkpt>
      <trkpt lat="44.50351" lon="4.06473">
        <ele>881</ele>
        <time>2016-05-12T16:24:40Z</time>
      </trkpt>
      <trkpt lat="44.50296" lon="4.06623">
        <ele>882</ele>
        <time>2016-05-12T16:24:41Z</time>
      </trkpt>
      <trkpt lat="44.50253" lon="4.06821">
        <ele>870</ele>
        <time>2016-05-12T16:24:42Z</time>
      </trkpt>
      <trkpt lat="44.50241" lon="4.06932">
        <ele>859</ele>
        <time>2016-05-12T16:24:43Z</time>
      </trkpt>
      <trkpt lat="44.50244" lon="4.07005">
        <ele>861</ele>
        <time>2016-05-12T16:24:44Z</time>
      </trkpt>
      <trkpt lat="44.50232" lon="4.07065">
        <ele>859</ele>
        <time>2016-05-12T16:24:45Z</time>
      </trkpt>
      <trkpt lat="44.50204" lon="4.07125">
        <ele>861</ele>
        <time>2016-05-12T16:24:46Z</time>
      </trkpt>
      <trkpt lat="44.50091" lon="4.07254">
        <ele>858</ele>
        <time>2016-05-12T16:24:47Z</time>
      </trkpt>
      <trkpt lat="44.49895" lon="4.07353">
        <ele>845</ele>
        <time>2016-05-12T16:24:48Z</time>
      </trkpt>
      <trkpt lat="44.49813" lon="4.07486">
        <ele>843</ele>
        <time>2016-05-12T16:24:49Z</time>
      </trkpt>
      <trkpt lat="44.49745" lon="4.07593">
        <ele>837</ele>
        <time>2016-05-12T16:24:50Z</time>
      </trkpt>
      <trkpt lat="44.49681" lon="4.07722">
        <ele>839</ele>
        <time>2016-05-12T16:24:51Z</time>
      </trkpt>
      <trkpt lat="44.49589" lon="4.0776">
        <ele>837</ele>
        <time>2016-05-12T16:24:52Z</time>
      </trkpt>
      <trkpt lat="44.49488" lon="4.07735">
        <ele>824</ele>
        <time>2016-05-12T16:24:53Z</time>
      </trkpt>
      <trkpt lat="44.49427" lon="4.07726">
        <ele>820</ele>
        <time>2016-05-12T16:24:54Z</time>
      </trkpt>
      <trkpt lat="44.49387" lon="4.07743">
        <ele>815</ele>
        <time>2016-05-12T16:24:55Z</time>
      </trkpt>
      <trkpt lat="44.49352" lon="4.07769">
        <ele>813</ele>
        <time>2016-05-12T16:24:56Z</time>
      </trkpt>
      <trkpt lat="44.49318" lon="4.07806">
        <ele>808</ele>
        <time>2016-05-12T16:24:57Z</time>
      </trkpt>
      <trkpt lat="44.49295" lon="4.07848">
        <ele>804</ele>
        <time>2016-05-12T16:24:58Z</time>
      </trkpt>
      <trkpt lat="44.49281" lon="4.07902">
        <ele>801</ele>
        <time>2016-05-12T16:24:59Z</time>
      </trkpt>
      <trkpt lat="44.49254" lon="4.07971">
        <ele>791</ele>
        <time>2016-05-12T16:25:00Z</time>
      </trkpt>
      <trkpt lat="44.49243" lon="4.08042">
        <ele>780</ele>
        <time>2016-05-12T16:25:01Z</time>
      </trkpt>
      <trkpt lat="44.49213" lon="4.08095">
        <ele>767</ele>
        <time>2016-05-12T16:25:02Z</time>
      </trkpt>
      <trkpt lat="44.492" lon="4.08142">
        <ele>764</ele>
        <time>2016-05-12T16:25:03Z</time>
      </trkpt>
      <trkpt lat="44.49236" lon="4.08179">
        <ele>746</ele>
        <time>2016-05-12T16:25:04Z</time>
      </trkpt>
      <trkpt lat="44.49245" lon="4.08248">
        <ele>729</ele>
        <time>2016-05-12T16:25:05Z</time>
      </trkpt>
      <trkpt lat="44.49246" lon="4.0829">
        <ele>722</ele>
        <time>2016-05-12T16:25:06Z</time>
      </trkpt>
      <trkpt lat="44.49242" lon="4.08325">
        <ele>710</ele>
        <time>2016-05-12T16:25:07Z</time>
      </trkpt>
      <trkpt lat="44.49229" lon="4.08361">
        <ele>703</ele>
        <time>2016-05-12T16:25:08Z</time>
      </trkpt>
      <trkpt lat="44.49225" lon="4.08378">
        <ele>701</ele>
        <time>2016-05-12T16:25:09Z</time>
      </trkpt>
      <trkpt lat="44.4922" lon="4.08432">
        <ele>683</ele>
        <time>2016-05-12T16:25:10Z</time>
      </trkpt>
      <trkpt lat="44.49208" lon="4.08477">
        <ele>681</ele>
        <time>2016-05-12T16:25:11Z</time>
      </trkpt>
      <trkpt lat="44.49187" lon="4.0855">
        <ele>665</ele>
        <time>2016-05-12T16:25:12Z</time>
      </trkpt>
      <trkpt lat="44.49164" lon="4.08614">
        <ele>676</ele>
        <time>2016-05-12T16:25:13Z</time>
      </trkpt>
      <trkpt lat="44.49141" lon="4.08642">
        <ele>677</ele>
        <time>2016-05-12T16:25:14Z</time>
      </trkpt>
      <trkpt lat="44.49121" lon="4.08679">
        <ele>671</ele>
        <time>2016-05-12T16:25:15Z</time>
      </trkpt>
      <trkpt lat="44.49102" lon="4.0875">
        <ele>665</ele>
        <time>2016-05-12T16:25:16Z</time>
      </trkpt>
      <trkpt lat="44.49099" lon="4.08805">
        <ele>656</ele>
        <time>2016-05-12T16:25:17Z</time>
      </trkpt>
      <trkpt lat="44.49115" lon="4.08851">
        <ele>641</ele>
        <time>2016-05-12T16:25:18Z</time>
      </trkpt>
      <trkpt lat="44.49141" lon="4.08878">
        <ele>629</ele>
        <time>2016-05-12T16:25:19Z</time>
      </trkpt>
      <trkpt lat="44.49176" lon="4.08881">
        <ele>605</ele>
        <time>2016-05-12T16:25:20Z</time>
      </trkpt>
      <trkpt lat="44.49144" lon="4.08984">
        <ele>609</ele>
        <time>2016-05-12T16:25:21Z</time>
      </trkpt>
      <trkpt lat="44.49131" lon="4.0902">
        <ele>600</ele>
        <time>2016-05-12T16:25:22Z</time>
      </trkpt>
      <trkpt lat="44.49165" lon="4.08936">
        <ele>610</ele>
        <time>2016-05-12T16:25:23Z</time>
      </trkpt>
      <trkpt lat="44.49096" lon="4.0911">
        <ele>587</ele>
        <time>2016-05-12T16:25:24Z</time>
      </trkpt>
      <trkpt lat="44.49056" lon="4.09207">
        <ele>573</ele>
        <time>2016-05-12T16:25:25Z</time>
      </trkpt>
      <trkpt lat="44.48998" lon="4.0923">
        <ele>574</ele>
        <time>2016-05-12T16:25:26Z</time>
      </trkpt>
      <trkpt lat="44.48952" lon="4.09228">
        <ele>574</ele>
        <time>2016-05-12T16:25:27Z</time>
      </trkpt>
      <trkpt lat="44.48922" lon="4.09192">
        <ele>581</ele>
        <time>2016-05-12T16:25:28Z</time>
      </trkpt>
      <trkpt lat="44.48871" lon="4.09205">
        <ele>570</ele>
        <time>2016-05-12T16:25:29Z</time>
      </trkpt>
      <trkpt lat="44.48815" lon="4.09202">
        <ele>558</ele>
        <time>2016-05-12T16:25:30Z</time>
      </trkpt>
      <trkpt lat="44.48779" lon="4.09177">
        <ele>556</ele>
        <time>2016-05-12T16:25:31Z</time>
      </trkpt>
      <trkpt lat="44.48759" lon="4.09138">
        <ele>567</ele>
        <time>2016-05-12T16:25:32Z</time>
      </trkpt>
      <trkpt lat="44.48752" lon="4.09076">
        <ele>569</ele>
        <time>2016-05-12T16:25:33Z</time>
      </trkpt>
      <trkpt lat="44.48747" lon="4.09003">
        <ele>573</ele>
        <time>2016-05-12T16:25:34Z</time>
      </trkpt>
      <trkpt lat="44.4873" lon="4.08934">
        <ele>589</ele>
        <time>2016-05-12T16:25:35Z</time>
      </trkpt>
      <trkpt lat="44.48686" lon="4.09014">
        <ele>574</ele>
        <time>2016-05-12T16:25:36Z</time>
      </trkpt>
      <trkpt lat="44.48646" lon="4.09052">
        <ele>573</ele>
        <time>2016-05-12T16:25:37Z</time>
      </trkpt>
      <trkpt lat="44.48591" lon="4.09065">
        <ele>576</ele>
        <time>2016-05-12T16:25:38Z</time>
      </trkpt>
      <trkpt lat="44.48528" lon="4.09072">
        <ele>588</ele>
        <time>2016-05-12T16:25:39Z</time>
      </trkpt>
      <trkpt lat="44.48473" lon="4.09099">
        <ele>583</ele>
        <time>2016-05-12T16:25:40Z</time>
      </trkpt>
      <trkpt lat="44.48423" lon="4.09125">
        <ele>583</ele>
        <time>2016-05-12T16:25:41Z</time>
      </trkpt>
      <trkpt lat="44.48265" lon="4.09121">
        <ele>607</ele>
        <time>2016-05-12T16:25:42Z</time>
      </trkpt>
      <trkpt lat="44.48228" lon="4.09155">
        <ele>608</ele>
        <time>2016-05-12T16:25:43Z</time>
      </trkpt>
      <trkpt lat="44.4813" lon="4.09162">
        <ele>603</ele>
        <time>2016-05-12T16:25:44Z</time>
      </trkpt>
      <trkpt lat="44.48113" lon="4.09144">
        <ele>601</ele>
        <time>2016-05-12T16:25:45Z</time>
      </trkpt>
      <trkpt lat="44.48115" lon="4.09106">
        <ele>606</ele>
        <time>2016-05-12T16:25:46Z</time>
      </trkpt>
      <trkpt lat="44.48072" lon="4.08973">
        <ele>615</ele>
        <time>2016-05-12T16:25:47Z</time>
      </trkpt>
      <trkpt lat="44.48038" lon="4.08938">
        <ele>612</ele>
        <time>2016-05-12T16:25:48Z</time>
      </trkpt>
      <trkpt lat="44.4802" lon="4.08913">
        <ele>614</ele>
        <time>2016-05-12T16:25:49Z</time>
      </trkpt>
      <trkpt lat="44.48011" lon="4.08844">
        <ele>616</ele>
        <time>2016-05-12T16:25:50Z</time>
      </trkpt>
      <trkpt lat="44.48006" lon="4.08713">
        <ele>637</ele>
        <time>2016-05-12T16:25:51Z</time>
      </trkpt>
      <trkpt lat="44.48008" lon="4.08666">
        <ele>638</ele>
        <time>2016-05-12T16:25:52Z</time>
      </trkpt>
      <trkpt lat="44.47986" lon="4.08647">
        <ele>642</ele>
        <time>2016-05-12T16:25:53Z</time>
      </trkpt>
      <trkpt lat="44.47954" lon="4.08724">
        <ele>630</ele>
        <time>2016-05-12T16:25:54Z</time>
      </trkpt>
      <trkpt lat="44.47921" lon="4.08735">
        <ele>628</ele>
        <time>2016-05-12T16:25:55Z</time>
      </trkpt>
      <trkpt lat="44.47878" lon="4.08726">
        <ele>632</ele>
        <time>2016-05-12T16:25:56Z</time>
      </trkpt>
      <trkpt lat="44.47839" lon="4.0869">
        <ele>637</ele>
        <time>2016-05-12T16:25:57Z</time>
      </trkpt>
      <trkpt lat="44.47816" lon="4.08664">
        <ele>647</ele>
        <time>2016-05-12T16:25:58Z</time>
      </trkpt>
      <trkpt lat="44.47793" lon="4.08584">
        <ele>653</ele>
        <time>2016-05-12T16:25:59Z</time>
      </trkpt>
      <trkpt lat="44.47778" lon="4.08576">
        <ele>659</ele>
        <time>2016-05-12T16:26:00Z</time>
      </trkpt>
      <trkpt lat="44.47758" lon="4.08617">
        <ele>653</ele>
        <time>2016-05-12T16:26:01Z</time>
      </trkpt>
      <trkpt lat="44.47752" lon="4.08664">
        <ele>651</ele>
        <time>2016-05-12T16:26:02Z</time>
      </trkpt>
      <trkpt lat="44.4777" lon="4.08717">
        <ele>645</ele>
        <time>2016-05-12T16:26:03Z</time>
      </trkpt>
      <trkpt lat="44.47763" lon="4.08767">
        <ele>643</ele>
        <time>2016-05-12T16:26:04Z</time>
      </trkpt>
      <trkpt lat="44.47718" lon="4.0882">
        <ele>664</ele>
        <time>2016-05-12T16:26:05Z</time>
      </trkpt>
      <trkpt lat="44.47689" lon="4.08861">
        <ele>661</ele>
        <time>2016-05-12T16:26:06Z</time>
      </trkpt>
      <trkpt lat="44.47666" lon="4.08908">
        <ele>670</ele>
        <time>2016-05-12T16:26:07Z</time>
      </trkpt>
      <trkpt lat="44.47639" lon="4.08958">
        <ele>670</ele>
        <time>2016-05-12T16:26:08Z</time>
      </trkpt>
      <trkpt lat="44.47628" lon="4.09001">
        <ele>665</ele>
        <time>2016-05-12T16:26:09Z</time>
      </trkpt>
      <trkpt lat="44.4759" lon="4.09072">
        <ele>669</ele>
        <time>2016-05-12T16:26:10Z</time>
      </trkpt>
      <trkpt lat="44.47547" lon="4.09065">
        <ele>676</ele>
        <time>2016-05-12T16:26:11Z</time>
      </trkpt>
      <trkpt lat="44.47493" lon="4.09076">
        <ele>677</ele>
        <time>2016-05-12T16:26:12Z</time>
      </trkpt>
      <trkpt lat="44.47437" lon="4.09069">
        <ele>681</ele>
        <time>2016-05-12T16:26:13Z</time>
      </trkpt>
      <trkpt lat="44.47409" lon="4.09095">
        <ele>684</ele>
        <time>2016-05-12T16:26:14Z</time>
      </trkpt>
      <trkpt lat="44.47388" lon="4.09149">
        <ele>683</ele>
        <time>2016-05-12T16:26:15Z</time>
      </trkpt>
      <trkpt lat="44.47371" lon="4.092">
        <ele>684</ele>
        <time>2016-05-12T16:26:16Z</time>
      </trkpt>
      <trkpt lat="44.47297" lon="4.09286">
        <ele>681</ele>
        <time>2016-05-12T16:26:17Z</time>
      </trkpt>
      <trkpt lat="44.47235" lon="4.09344">
        <ele>677</ele>
        <time>2016-05-12T16:26:18Z</time>
      </trkpt>
      <trkpt lat="44.47192" lon="4.09389">
        <ele>673</ele>
        <time>2016-05-12T16:26:19Z</time>
      </trkpt>
      <trkpt lat="44.47066" lon="4.09445">
        <ele>667</ele>
        <time>2016-05-12T16:26:20Z</time>
      </trkpt>
      <trkpt lat="44.46942" lon="4.09514">
        <ele>661</ele>
        <time>2016-05-12T16:26:21Z</time>
      </trkpt>
      <trkpt lat="44.46869" lon="4.0952">
        <ele>658</ele>
        <time>2016-05-12T16:26:22Z</time>
      </trkpt>
      <trkpt lat="44.46803" lon="4.09591">
        <ele>650</ele>
        <time>2016-05-12T16:26:23Z</time>
      </trkpt>
      <trkpt lat="44.46745" lon="4.09619">
        <ele>643</ele>
        <time>2016-05-12T16:26:24Z</time>
      </trkpt>
      <trkpt lat="44.467" lon="4.09659">
        <ele>642</ele>
        <time>2016-05-12T16:26:25Z</time>
      </trkpt>
      <trkpt lat="44.46668" lon="4.0972">
        <ele>642</ele>
        <time>2016-05-12T16:26:26Z</time>
      </trkpt>
      <trkpt lat="44.46622" lon="4.09775">
        <ele>641</ele>
        <time>2016-05-12T16:26:27Z</time>
      </trkpt>
      <trkpt lat="44.46573" lon="4.09797">
        <ele>636</ele>
        <time>2016-05-12T16:26:28Z</time>
      </trkpt>
      <trkpt lat="44.46507" lon="4.09788">
        <ele>633</ele>
        <time>2016-05-12T16:26:29Z</time>
      </trkpt>
      <trkpt lat="44.46414" lon="4.09758">
        <ele>625</ele>
        <time>2016-05-12T16:26:30Z</time>
      </trkpt>
      <trkpt lat="44.46351" lon="4.09707">
        <ele>618</ele>
        <time>2016-05-12T16:26:31Z</time>
      </trkpt>
      <trkpt lat="44.4632" lon="4.09687">
        <ele>613</ele>
        <time>2016-05-12T16:26:32Z</time>
      </trkpt>
      <trkpt lat="44.46225" lon="4.09715">
        <ele>605</ele>
        <time>2016-05-12T16:26:33Z</time>
      </trkpt>
      <trkpt lat="44.4616" lon="4.09713">
        <ele>599</ele>
        <time>2016-05-12T16:26:34Z</time>
      </trkpt>
      <trkpt lat="44.46071" lon="4.09739">
        <ele>593</ele>
        <time>2016-05-12T16:26:35Z</time>
      </trkpt>
      <trkpt lat="44.46034" lon="4.09769">
        <ele>590</ele>
        <time>2016-05-12T16:26:36Z</time>
      </trkpt>
      <trkpt lat="44.45965" lon="4.09838">
        <ele>583</ele>
        <time>2016-05-12T16:26:37Z</time>
      </trkpt>
      <trkpt lat="44.45916" lon="4.09831">
        <ele>579</ele>
        <time>2016-05-12T16:26:38Z</time>
      </trkpt>
      <trkpt lat="44.45852" lon="4.09777">
        <ele>571</ele>
        <time>2016-05-12T16:26:39Z</time>
      </trkpt>
      <trkpt lat="44.458" lon="4.09735">
        <ele>557</ele>
        <time>2016-05-12T16:26:40Z</time>
      </trkpt>
      <trkpt lat="44.45777" lon="4.09747">
        <ele>557</ele>
        <time>2016-05-12T16:26:41Z</time>
      </trkpt>
      <trkpt lat="44.45775" lon="4.09784">
        <ele>564</ele>
        <time>2016-05-12T16:26:42Z</time>
      </trkpt>
      <trkpt lat="44.45817" lon="4.09895">
        <ele>563</ele>
        <time>2016-05-12T16:26:43Z</time>
      </trkpt>
      <trkpt lat="44.4583" lon="4.09988">
        <ele>553</ele>
        <time>2016-05-12T16:26:44Z</time>
      </trkpt>
      <trkpt lat="44.45867" lon="4.10091">
        <ele>545</ele>
        <time>2016-05-12T16:26:45Z</time>
      </trkpt>
      <trkpt lat="44.45889" lon="4.10198">
        <ele>539</ele>
        <time>2016-05-12T16:26:46Z</time>
      </trkpt>
      <trkpt lat="44.45907" lon="4.10303">
        <ele>529</ele>
        <time>2016-05-12T16:26:47Z</time>
      </trkpt>
      <trkpt lat="44.45921" lon="4.1041">
        <ele>528</ele>
        <time>2016-05-12T16:26:48Z</time>
      </trkpt>
      <trkpt lat="44.4596" lon="4.10443">
        <ele>522</ele>
        <time>2016-05-12T16:26:49Z</time>
      </trkpt>
      <trkpt lat="44.45999" lon="4.10406">
        <ele>529</ele>
        <time>2016-05-12T16:26:50Z</time>
      </trkpt>
      <trkpt lat="44.46025" lon="4.10374">
        <ele>518</ele>
        <time>2016-05-12T16:26:51Z</time>
      </trkpt>
      <trkpt lat="44.45994" lon="4.10445">
        <ele>522</ele>
        <time>2016-05-12T16:26:52Z</time>
      </trkpt>
      <trkpt lat="44.4595" lon="4.10507">
        <ele>509</ele>
        <time>2016-05-12T16:26:53Z</time>
      </trkpt>
      <trkpt lat="44.45913" lon="4.10518">
        <ele>508</ele>
        <time>2016-05-12T16:26:54Z</time>
      </trkpt>
      <trkpt lat="44.4589" lon="4.10486">
        <ele>509</ele>
        <time>2016-05-12T16:26:55Z</time>
      </trkpt>
      <trkpt lat="44.45872" lon="4.10417">
        <ele>506</ele>
        <time>2016-05-12T16:26:56Z</time>
      </trkpt>
      <trkpt lat="44.45858" lon="4.10441">
        <ele>503</ele>
        <time>2016-05-12T16:26:57Z</time>
      </trkpt>
      <trkpt lat="44.45867" lon="4.10503">
        <ele>497</ele>
        <time>2016-05-12T16:26:58Z</time>
      </trkpt>
      <trkpt lat="44.45901" lon="4.10563">
        <ele>499</ele>
        <time>2016-05-12T16:26:59Z</time>
      </trkpt>
      <trkpt lat="44.45964" lon="4.10561">
        <ele>502</ele>
        <time>2016-05-12T16:27:00Z</time>
      </trkpt>
      <trkpt lat="44.46026" lon="4.10522">
        <ele>486</ele>
        <time>2016-05-12T16:27:01Z</time>
      </trkpt>
      <trkpt lat="44.46002" lon="4.10576">
        <ele>486</ele>
        <time>2016-05-12T16:27:02Z</time>
      </trkpt>
      <trkpt lat="44.45941" lon="4.10634">
        <ele>478</ele>
        <time>2016-05-12T16:27:03Z</time>
      </trkpt>
      <trkpt lat="44.45881" lon="4.10647">
        <ele>472</ele>
        <time>2016-05-12T16:27:04Z</time>
      </trkpt>
      <trkpt lat="44.45827" lon="4.10687">
        <ele>447</ele>
        <time>2016-05-12T16:27:05Z</time>
      </trkpt>
      <trkpt lat="44.45807" lon="4.10711">
        <ele>442</ele>
        <time>2016-05-12T16:27:06Z</time>
      </trkpt>
      <trkpt lat="44.45766" lon="4.1067">
        <ele>440</ele>
        <time>2016-05-12T16:27:07Z</time>
      </trkpt>
      <trkpt lat="44.45741" lon="4.10659">
        <ele>433</ele>
        <time>2016-05-12T16:27:08Z</time>
      </trkpt>
      <trkpt lat="44.45743" lon="4.10625">
        <ele>431</ele>
        <time>2016-05-12T16:27:09Z</time>
      </trkpt>
      <trkpt lat="44.45719" lon="4.10614">
        <ele>428</ele>
        <time>2016-05-12T16:27:10Z</time>
      </trkpt>
      <trkpt lat="44.45694" lon="4.10533">
        <ele>424</ele>
        <time>2016-05-12T16:27:11Z</time>
      </trkpt>
      <trkpt lat="44.45671" lon="4.10451">
        <ele>422</ele>
        <time>2016-05-12T16:27:12Z</time>
      </trkpt>
      <trkpt lat="44.45669" lon="4.10419">
        <ele>413</ele>
        <time>2016-05-12T16:27:13Z</time>
      </trkpt>
      <trkpt lat="44.45619" lon="4.10338">
        <ele>407</ele>
        <time>2016-05-12T16:27:14Z</time>
      </trkpt>
      <trkpt lat="44.45567" lon="4.10363">
        <ele>398</ele>
        <time>2016-05-12T16:27:15Z</time>
      </trkpt>
      <trkpt lat="44.45475" lon="4.10378">
        <ele>394</ele>
        <time>2016-05-12T16:27:16Z</time>
      </trkpt>
      <trkpt lat="44.45401" lon="4.10398">
        <ele>385</ele>
        <time>2016-05-12T16:27:17Z</time>
      </trkpt>
      <trkpt lat="44.45328" lon="4.10363">
        <ele>376</ele>
        <time>2016-05-12T16:27:18Z</time>
      </trkpt>
      <trkpt lat="44.45268" lon="4.10329">
        <ele>375</ele>
        <time>2016-05-12T16:27:19Z</time>
      </trkpt>
      <trkpt lat="44.45225" lon="4.10271">
        <ele>368</ele>
        <time>2016-05-12T16:27:20Z</time>
      </trkpt>
      <trkpt lat="44.45204" lon="4.10202">
        <ele>370</ele>
        <time>2016-05-12T16:27:21Z</time>
      </trkpt>
      <trkpt lat="44.4515" lon="4.10168">
        <ele>361</ele>
        <time>2016-05-12T16:27:22Z</time>
      </trkpt>
      <trkpt lat="44.45121" lon="4.1014">
        <ele>354</ele>
        <time>2016-05-12T16:27:23Z</time>
      </trkpt>
      <trkpt lat="44.45136" lon="4.10091">
        <ele>357</ele>
        <time>2016-05-12T16:27:24Z</time>
      </trkpt>
      <trkpt lat="44.45169" lon="4.10009">
        <ele>367</ele>
        <time>2016-05-12T16:27:25Z</time>
      </trkpt>
      <trkpt lat="44.45167" lon="4.09977">
        <ele>369</ele>
        <time>2016-05-12T16:27:26Z</time>
      </trkpt>
      <trkpt lat="44.45147" lon="4.09936">
        <ele>353</ele>
        <time>2016-05-12T16:27:27Z</time>
      </trkpt>
      <trkpt lat="44.4515" lon="4.09878">
        <ele>349</ele>
        <time>2016-05-12T16:27:28Z</time>
      </trkpt>
      <trkpt lat="44.45224" lon="4.09829">
        <ele>359</ele>
        <time>2016-05-12T16:27:29Z</time>
      </trkpt>
      <trkpt lat="44.45261" lon="4.09863">
        <ele>378</ele>
        <time>2016-05-12T16:27:30Z</time>
      </trkpt>
      <trkpt lat="44.45303" lon="4.09883">
        <ele>383</ele>
        <time>2016-05-12T16:27:31Z</time>
      </trkpt>
      <trkpt lat="44.45279" lon="4.09801">
        <ele>378</ele>
        <time>2016-05-12T16:27:32Z</time>
      </trkpt>
      <trkpt lat="44.4527" lon="4.09713">
        <ele>375</ele>
        <time>2016-05-12T16:27:33Z</time>
      </trkpt>
      <trkpt lat="44.45337" lon="4.09593">
        <ele>377</ele>
        <time>2016-05-12T16:27:34Z</time>
      </trkpt>
      <trkpt lat="44.45472" lon="4.09514">
        <ele>391</ele>
        <time>2016-05-12T16:27:35Z</time>
      </trkpt>
      <trkpt lat="44.45533" lon="4.09453">
        <ele>402</ele>
        <time>2016-05-12T16:27:36Z</time>
      </trkpt>
      <trkpt lat="44.45593" lon="4.09381">
        <ele>413</ele>
        <time>2016-05-12T16:27:37Z</time>
      </trkpt>
      <trkpt lat="44.45648" lon="4.09376">
        <ele>416</ele>
        <time>2016-05-12T16:27:38Z</time>
      </trkpt>
      <trkpt lat="44.45673" lon="4.0934">
        <ele>420</ele>
        <time>2016-05-12T16:27:39Z</time>
      </trkpt>
      <trkpt lat="44.45669" lon="4.09297">
        <ele>432</ele>
        <time>2016-05-12T16:27:40Z</time>
      </trkpt>
      <trkpt lat="44.45593" lon="4.09305">
        <ele>430</ele>
        <time>2016-05-12T16:27:41Z</time>
      </trkpt>
      <trkpt lat="44.4555" lon="4.09331">
        <ele>427</ele>
        <time>2016-05-12T16:27:42Z</time>
      </trkpt>
      <trkpt lat="44.45484" lon="4.09348">
        <ele>408</ele>
        <time>2016-05-12T16:27:43Z</time>
      </trkpt>
      <trkpt lat="44.45431" lon="4.09312">
        <ele>428</ele>
        <time>2016-05-12T16:27:44Z</time>
      </trkpt>
      <trkpt lat="44.45375" lon="4.09374">
        <ele>404</ele>
        <time>2016-05-12T16:27:45Z</time>
      </trkpt>
      <trkpt lat="44.45345" lon="4.09365">
        <ele>407</ele>
        <time>2016-05-12T16:27:46Z</time>
      </trkpt>
      <trkpt lat="44.45322" lon="4.09357">
        <ele>416</ele>
        <time>2016-05-12T16:27:47Z</time>
      </trkpt>
      <trkpt lat="44.45303" lon="4.09359">
        <ele>417</ele>
        <time>2016-05-12T16:27:48Z</time>
      </trkpt>
      <trkpt lat="44.4528" lon="4.09381">
        <ele>415</ele>
        <time>2016-05-12T16:27:49Z</time>
      </trkpt>
      <trkpt lat="44.4525" lon="4.09398">
        <ele>424</ele>
        <time>2016-05-12T16:27:50Z</time>
      </trkpt>
      <trkpt lat="44.45215" lon="4.09475">
        <ele>406</ele>
        <time>2016-05-12T16:27:51Z</time>
      </trkpt>
      <trkpt lat="44.45159" lon="4.09514">
        <ele>403</ele>
        <time>2016-05-12T16:27:52Z</time>
      </trkpt>
      <trkpt lat="44.4511" lon="4.0952">
        <ele>403</ele>
        <time>2016-05-12T16:27:53Z</time>
      </trkpt>
      <trkpt lat="44.45066" lon="4.09578">
        <ele>397</ele>
        <time>2016-05-12T16:27:54Z</time>
      </trkpt>
      <trkpt lat="44.45022" lon="4.09524">
        <ele>403</ele>
        <time>2016-05-12T16:27:55Z</time>
      </trkpt>
      <trkpt lat="44.45019" lon="4.09477">
        <ele>417</ele>
        <time>2016-05-12T16:27:56Z</time>
      </trkpt>
      <trkpt lat="44.45" lon="4.09451">
        <ele>420</ele>
        <time>2016-05-12T16:27:57Z</time>
      </trkpt>
      <trkpt lat="44.44974" lon="4.09533">
        <ele>408</ele>
        <time>2016-05-12T16:27:58Z</time>
      </trkpt>
      <trkpt lat="44.44959" lon="4.09567">
        <ele>407</ele>
        <time>2016-05-12T16:27:59Z</time>
      </trkpt>
      <trkpt lat="44.44951" lon="4.09612">
        <ele>399</ele>
        <time>2016-05-12T16:28:00Z</time>
      </trkpt>
      <trkpt lat="44.44924" lon="4.09627">
        <ele>400</ele>
        <time>2016-05-12T16:28:01Z</time>
      </trkpt>
      <trkpt lat="44.44888" lon="4.09689">
        <ele>408</ele>
        <time>2016-05-12T16:28:02Z</time>
      </trkpt>
      <trkpt lat="44.44862" lon="4.09739">
        <ele>408</ele>
        <time>2016-05-12T16:28:03Z</time>
      </trkpt>
      <trkpt lat="44.44856" lon="4.0978">
        <ele>402</ele>
        <time>2016-05-12T16:28:04Z</time>
      </trkpt>
      <trkpt lat="44.44813" lon="4.09842">
        <ele>404</ele>
        <time>2016-05-12T16:28:05Z</time>
      </trkpt>
      <trkpt lat="44.44744" lon="4.09885">
        <ele>414</ele>
        <time>2016-05-12T16:28:06Z</time>
      </trkpt>
      <trkpt lat="44.44705" lon="4.09945">
        <ele>415</ele>
        <time>2016-05-12T16:28:07Z</time>
      </trkpt>
      <trkpt lat="44.44677" lon="4.10041">
        <ele>414</ele>
        <time>2016-05-12T16:28:08Z</time>
      </trkpt>
      <trkpt lat="44.44674" lon="4.10082">
        <ele>418</ele>
        <time>2016-05-12T16:28:09Z</time>
      </trkpt>
      <trkpt lat="44.44655" lon="4.10142">
        <ele>412</ele>
        <time>2016-05-12T16:28:10Z</time>
      </trkpt>
      <trkpt lat="44.44625" lon="4.10114">
        <ele>413</ele>
        <time>2016-05-12T16:28:11Z</time>
      </trkpt>
      <trkpt lat="44.44597" lon="4.10078">
        <ele>415</ele>
        <time>2016-05-12T16:28:12Z</time>
      </trkpt>
      <trkpt lat="44.44587" lon="4.10009">
        <ele>418</ele>
        <time>2016-05-12T16:28:13Z</time>
      </trkpt>
      <trkpt lat="44.44599" lon="4.09926">
        <ele>419</ele>
        <time>2016-05-12T16:28:14Z</time>
      </trkpt>
      <trkpt lat="44.44613" lon="4.09855">
        <ele>418</ele>
        <time>2016-05-12T16:28:15Z</time>
      </trkpt>
      <trkpt lat="44.44697" lon="4.09707">
        <ele>419</ele>
        <time>2016-05-12T16:28:16Z</time>
      </trkpt>
      <trkpt lat="44.44636" lon="4.09627">
        <ele>413</ele>
        <time>2016-05-12T16:28:17Z</time>
      </trkpt>
      <trkpt lat="44.44587" lon="4.0964">
        <ele>409</ele>
        <time>2016-05-12T16:28:18Z</time>
      </trkpt>
      <trkpt lat="44.44499" lon="4.09647">
        <ele>396</ele>
        <time>2016-05-12T16:28:19Z</time>
      </trkpt>
      <trkpt lat="44.44371" lon="4.09724">
        <ele>390</ele>
        <time>2016-05-12T16:28:20Z</time>
      </trkpt>
      <trkpt lat="44.44331" lon="4.09739">
        <ele>392</ele>
        <time>2016-05-12T16:28:21Z</time>
      </trkpt>
      <trkpt lat="44.44274" lon="4.09747">
        <ele>395</ele>
        <time>2016-05-12T16:28:22Z</time>
      </trkpt>
      <trkpt lat="44.44225" lon="4.0978">
        <ele>399</ele>
        <time>2016-05-12T16:28:23Z</time>
      </trkpt>
      <trkpt lat="44.44174" lon="4.09829">
        <ele>402</ele>
        <time>2016-05-12T16:28:24Z</time>
      </trkpt>
      <trkpt lat="44.44073" lon="4.09921">
        <ele>405</ele>
        <time>2016-05-12T16:28:25Z</time>
      </trkpt>
      <trkpt lat="44.44038" lon="4.09913">
        <ele>406</ele>
        <time>2016-05-12T16:28:26Z</time>
      </trkpt>
      <trkpt lat="44.43965" lon="4.09803">
        <ele>402</ele>
        <time>2016-05-12T16:28:27Z</time>
      </trkpt>
      <trkpt lat="44.43802" lon="4.09773">
        <ele>398</ele>
        <time>2016-05-12T16:28:28Z</time>
      </trkpt>
      <trkpt lat="44.43664" lon="4.09906">
        <ele>397</ele>
        <time>2016-05-12T16:28:29Z</time>
      </trkpt>
      <trkpt lat="44.43606" lon="4.10005">
        <ele>395</ele>
        <time>2016-05-12T16:28:30Z</time>
      </trkpt>
      <trkpt lat="44.43555" lon="4.10185">
        <ele>393</ele>
        <time>2016-05-12T16:28:31Z</time>
      </trkpt>
      <trkpt lat="44.43503" lon="4.10299">
        <ele>392</ele>
        <time>2016-05-12T16:28:32Z</time>
      </trkpt>
      <trkpt lat="44.43442" lon="4.10651">
        <ele>383</ele>
        <time>2016-05-12T16:28:33Z</time>
      </trkpt>
      <trkpt lat="44.4339" lon="4.10853">
        <ele>369</ele>
        <time>2016-05-12T16:28:34Z</time>
      </trkpt>
      <trkpt lat="44.43304" lon="4.11161">
        <ele>359</ele>
        <time>2016-05-12T16:28:35Z</time>
      </trkpt>
      <trkpt lat="44.43244" lon="4.11213">
        <ele>357</ele>
        <time>2016-05-12T16:28:36Z</time>
      </trkpt>
      <trkpt lat="44.43293" lon="4.1132">
        <ele>358</ele>
        <time>2016-05-12T16:28:37Z</time>
      </trkpt>
      <trkpt lat="44.43266" lon="4.11458">
        <ele>348</ele>
        <time>2016-05-12T16:28:38Z</time>
      </trkpt>
      <trkpt lat="44.43252" lon="4.11561">
        <ele>345</ele>
        <time>2016-05-12T16:28:39Z</time>
      </trkpt>
      <trkpt lat="44.432" lon="4.11825">
        <ele>338</ele>
        <time>2016-05-12T16:28:40Z</time>
      </trkpt>
      <trkpt lat="44.43163" lon="4.11904">
        <ele>338</ele>
        <time>2016-05-12T16:28:41Z</time>
      </trkpt>
      <trkpt lat="44.43094" lon="4.11966">
        <ele>335</ele>
        <time>2016-05-12T16:28:42Z</time>
      </trkpt>
      <trkpt lat="44.43068" lon="4.12065">
        <ele>326</ele>
        <time>2016-05-12T16:28:43Z</time>
      </trkpt>
      <trkpt lat="44.43042" lon="4.12101">
        <ele>322</ele>
        <time>2016-05-12T16:28:44Z</time>
      </trkpt>
      <trkpt lat="44.43004" lon="4.12219">
        <ele>316</ele>
        <time>2016-05-12T16:28:45Z</time>
      </trkpt>
      <trkpt lat="44.42973" lon="4.12273">
        <ele>314</ele>
        <time>2016-05-12T16:28:46Z</time>
      </trkpt>
      <trkpt lat="44.42941" lon="4.12346">
        <ele>310</ele>
        <time>2016-05-12T16:28:47Z</time>
      </trkpt>
      <trkpt lat="44.42927" lon="4.12455">
        <ele>304</ele>
        <time>2016-05-12T16:28:48Z</time>
      </trkpt>
      <trkpt lat="44.4291" lon="4.12507">
        <ele>306</ele>
        <time>2016-05-12T16:28:49Z</time>
      </trkpt>
      <trkpt lat="44.42878" lon="4.12569">
        <ele>304</ele>
        <time>2016-05-12T16:28:50Z</time>
      </trkpt>
      <trkpt lat="44.42874" lon="4.12676">
        <ele>300</ele>
        <time>2016-05-12T16:28:51Z</time>
      </trkpt>
      <trkpt lat="44.42846" lon="4.1264">
        <ele>303</ele>
        <time>2016-05-12T16:28:52Z</time>
      </trkpt>
      <trkpt lat="44.42825" lon="4.1261">
        <ele>302</ele>
        <time>2016-05-12T16:28:53Z</time>
      </trkpt>
      <trkpt lat="44.42795" lon="4.12625">
        <ele>301</ele>
        <time>2016-05-12T16:28:54Z</time>
      </trkpt>
      <trkpt lat="44.42728" lon="4.12683">
        <ele>295</ele>
        <time>2016-05-12T16:28:55Z</time>
      </trkpt>
      <trkpt lat="44.42702" lon="4.12659">
        <ele>294</ele>
        <time>2016-05-12T16:28:56Z</time>
      </trkpt>
      <trkpt lat="44.42656" lon="4.12571">
        <ele>284</ele>
        <time>2016-05-12T16:28:57Z</time>
      </trkpt>
      <trkpt lat="44.42635" lon="4.12561">
        <ele>282</ele>
        <time>2016-05-12T16:28:58Z</time>
      </trkpt>
      <trkpt lat="44.4265" lon="4.12666">
        <ele>288</ele>
        <time>2016-05-12T16:28:59Z</time>
      </trkpt>
      <trkpt lat="44.42662" lon="4.12769">
        <ele>279</ele>
        <time>2016-05-12T16:29:00Z</time>
      </trkpt>
      <trkpt lat="44.42727" lon="4.12824">
        <ele>284</ele>
        <time>2016-05-12T16:29:01Z</time>
      </trkpt>
      <trkpt lat="44.42745" lon="4.12878">
        <ele>275</ele>
        <time>2016-05-12T16:29:02Z</time>
      </trkpt>
      <trkpt lat="44.42739" lon="4.12947">
        <ele>264</ele>
        <time>2016-05-12T16:29:03Z</time>
      </trkpt>
      <trkpt lat="44.4272" lon="4.12949">
        <ele>263</ele>
        <time>2016-05-12T16:29:04Z</time>
      </trkpt>
      <trkpt lat="44.4271" lon="4.12921">
        <ele>263</ele>
        <time>2016-05-12T16:29:05Z</time>
      </trkpt>
      <trkpt lat="44.427" lon="4.1288">
        <ele>272</ele>
        <time>2016-05-12T16:29:06Z</time>
      </trkpt>
      <trkpt lat="44.42651" lon="4.12857">
        <ele>263</ele>
        <time>2016-05-12T16:29:07Z</time>
      </trkpt>
      <trkpt lat="44.42615" lon="4.12839">
        <ele>260</ele>
        <time>2016-05-12T16:29:08Z</time>
      </trkpt>
      <trkpt lat="44.42587" lon="4.12835">
        <ele>260</ele>
        <time>2016-05-12T16:29:09Z</time>
      </trkpt>
      <trkpt lat="44.42564" lon="4.12803">
        <ele>257</ele>
        <time>2016-05-12T16:29:10Z</time>
      </trkpt>
      <trkpt lat="44.42535" lon="4.12739">
        <ele>262</ele>
        <time>2016-05-12T16:29:11Z</time>
      </trkpt>
      <trkpt lat="44.42514" lon="4.12711">
        <ele>261</ele>
        <time>2016-05-12T16:29:12Z</time>
      </trkpt>
      <trkpt lat="44.42472" lon="4.1264">
        <ele>248</ele>
        <time>2016-05-12T16:29:13Z</time>
      </trkpt>
      <trkpt lat="44.42483" lon="4.12496">
        <ele>240</ele>
        <time>2016-05-12T16:29:14Z</time>
      </trkpt>
      <trkpt lat="44.42426" lon="4.12631">
        <ele>243</ele>
        <time>2016-05-12T16:29:15Z</time>
      </trkpt>
      <trkpt lat="44.42423" lon="4.12694">
        <ele>241</ele>
        <time>2016-05-12T16:29:16Z</time>
      </trkpt>
      <trkpt lat="44.42446" lon="4.12726">
        <ele>242</ele>
        <time>2016-05-12T16:29:17Z</time>
      </trkpt>
      <trkpt lat="44.42388" lon="4.1273">
        <ele>229</ele>
        <time>2016-05-12T16:29:18Z</time>
      </trkpt>
      <trkpt lat="44.42354" lon="4.12726">
        <ele>226</ele>
        <time>2016-05-12T16:29:19Z</time>
      </trkpt>
      <trkpt lat="44.42328" lon="4.12747">
        <ele>217</ele>
        <time>2016-05-12T16:29:20Z</time>
      </trkpt>
      <trkpt lat="44.42311" lon="4.12809">
        <ele>210</ele>
        <time>2016-05-12T16:29:21Z</time>
      </trkpt>
      <trkpt lat="44.42288" lon="4.12859">
        <ele>209</ele>
        <time>2016-05-12T16:29:22Z</time>
      </trkpt>
      <trkpt lat="44.42261" lon="4.1293">
        <ele>209</ele>
        <time>2016-05-12T16:29:23Z</time>
      </trkpt>
      <trkpt lat="44.42241" lon="4.12925">
        <ele>202</ele>
        <time>2016-05-12T16:29:24Z</time>
      </trkpt>
      <trkpt lat="44.42228" lon="4.12867">
        <ele>197</ele>
        <time>2016-05-12T16:29:25Z</time>
      </trkpt>
      <trkpt lat="44.42242" lon="4.12747">
        <ele>199</ele>
        <time>2016-05-12T16:29:26Z</time>
      </trkpt>
      <trkpt lat="44.42225" lon="4.12694">
        <ele>198</ele>
        <time>2016-05-12T16:29:27Z</time>
      </trkpt>
      <trkpt lat="44.42207" lon="4.12734">
        <ele>196</ele>
        <time>2016-05-12T16:29:28Z</time>
      </trkpt>
      <trkpt lat="44.42199" lon="4.12769">
        <ele>195</ele>
        <time>2016-05-12T16:29:29Z</time>
      </trkpt>
      <trkpt lat="44.42186" lon="4.12782">
        <ele>194</ele>
        <time>2016-05-12T16:29:30Z</time>
      </trkpt>
      <trkpt lat="44.42178" lon="4.12752">
        <ele>193</ele>
        <time>2016-05-12T16:29:31Z</time>
      </trkpt>
      <trkpt lat="44.42158" lon="4.12749">
        <ele>194</ele>
        <time>2016-05-12T16:29:32Z</time>
      </trkpt>
      <trkpt lat="44.42153" lon="4.12784">
        <ele>196</ele>
        <time>2016-05-12T16:29:33Z</time>
      </trkpt>
      <trkpt lat="44.42132" lon="4.1288">
        <ele>190</ele>
        <time>2016-05-12T16:29:34Z</time>
      </trkpt>
      <trkpt lat="44.4211" lon="4.12955">
        <ele>176</ele>
        <time>2016-05-12T16:29:35Z</time>
      </trkpt>
      <trkpt lat="44.42086" lon="4.12964">
        <ele>173</ele>
        <time>2016-05-12T16:29:36Z</time>
      </trkpt>
      <trkpt lat="44.4204" lon="4.12953">
        <ele>168</ele>
        <time>2016-05-12T16:29:37Z</time>
      </trkpt>
      <trkpt lat="44.41887" lon="4.12934">
        <ele>164</ele>
        <time>2016-05-12T16:29:38Z</time>
      </trkpt>
      <trkpt lat="44.41727" lon="4.12938">
        <ele>163</ele>
        <time>2016-05-12T16:29:39Z</time>
      </trkpt>
      <trkpt lat="44.417" lon="4.12925">
        <ele>162</ele>
        <time>2016-05-12T16:29:40Z</time>
      </trkpt>
      <trkpt lat="44.41614" lon="4.1282">
        <ele>163</ele>
        <time>2016-05-12T16:29:41Z</time>
      </trkpt>
      <trkpt lat="44.41582" lon="4.12745">
        <ele>161</ele>
        <time>2016-05-12T16:29:42Z</time>
      </trkpt>
      <trkpt lat="44.41314" lon="4.12616">
        <ele>176</ele>
        <time>2016-05-12T16:29:43Z</time>
      </trkpt>
      <trkpt lat="44.41295" lon="4.12625">
        <ele>181</ele>
        <time>2016-05-12T16:29:44Z</time>
      </trkpt>
      <trkpt lat="44.41282" lon="4.12816">
        <ele>175</ele>
        <time>2016-05-12T16:29:45Z</time>
      </trkpt>
      <trkpt lat="44.41242" lon="4.13107">
        <ele>179</ele>
        <time>2016-05-12T16:29:46Z</time>
      </trkpt>
      <trkpt lat="44.41202" lon="4.13193">
        <ele>177</ele>
        <time>2016-05-12T16:29:47Z</time>
      </trkpt>
      <trkpt lat="44.41095" lon="4.1318">
        <ele>186</ele>
        <time>2016-05-12T16:29:48Z</time>
      </trkpt>
      <trkpt lat="44.4103" lon="4.13176">
        <ele>189</ele>
        <time>2016-05-12T16:29:49Z</time>
      </trkpt>
      <trkpt lat="44.40966" lon="4.13198">
        <ele>191</ele>
        <time>2016-05-12T16:29:50Z</time>
      </trkpt>
      <trkpt lat="44.40889" lon="4.13159">
        <ele>189</ele>
        <time>2016-05-12T16:29:51Z</time>
      </trkpt>
      <trkpt lat="44.40779" lon="4.13095">
        <ele>187</ele>
        <time>2016-05-12T16:29:52Z</time>
      </trkpt>
      <trkpt lat="44.40662" lon="4.13082">
        <ele>184</ele>
        <time>2016-05-12T16:29:53Z</time>
      </trkpt>
      <trkpt lat="44.40589" lon="4.13152">
        <ele>178</ele>
        <time>2016-05-12T16:29:54Z</time>
      </trkpt>
    </trkseg>
  </trk>
</gpx>